﻿<?xml version="1.0" encoding="utf-8"?><gpx creator="Garmin Desktop App" version="1.1" xsi:schemaLocation="http://www.topografix.com/GPX/1/1 http://www.topografix.com/GPX/1/1/gpx.xsd http://www.garmin.com/xmlschemas/WaypointExtension/v1 http://www8.garmin.com/xmlschemas/WaypointExtensionv1.xsd http://www.garmin.com/xmlschemas/TrackPointExtension/v1 http://www.garmin.com/xmlschemas/TrackPointExtensionv1.xsd http://www.garmin.com/xmlschemas/GpxExtensions/v3 http://www8.garmin.com/xmlschemas/GpxExtensionsv3.xsd http://www.garmin.com/xmlschemas/ActivityExtension/v1 http://www8.garmin.com/xmlschemas/ActivityExtensionv1.xsd http://www.garmin.com/xmlschemas/AdventuresExtensions/v1 http://www8.garmin.com/xmlschemas/AdventuresExtensionv1.xsd http://www.garmin.com/xmlschemas/PressureExtension/v1 http://www.garmin.com/xmlschemas/PressureExtensionv1.xsd http://www.garmin.com/xmlschemas/TripExtensions/v1 http://www.garmin.com/xmlschemas/TripExtensionsv1.xsd http://www.garmin.com/xmlschemas/TripMetaDataExtensions/v1 http://www.garmin.com/xmlschemas/TripMetaDataExtensionsv1.xsd http://www.garmin.com/xmlschemas/ViaPointTransportationModeExtensions/v1 http://www.garmin.com/xmlschemas/ViaPointTransportationModeExtensionsv1.xsd http://www.garmin.com/xmlschemas/CreationTimeExtension/v1 http://www.garmin.com/xmlschemas/CreationTimeExtensionsv1.xsd http://www.garmin.com/xmlschemas/AccelerationExtension/v1 http://www.garmin.com/xmlschemas/AccelerationExtensionv1.xsd http://www.garmin.com/xmlschemas/PowerExtension/v1 http://www.garmin.com/xmlschemas/PowerExtensionv1.xsd http://www.garmin.com/xmlschemas/VideoExtension/v1 http://www.garmin.com/xmlschemas/VideoExtensionv1.xsd" xmlns="http://www.topografix.com/GPX/1/1" xmlns:xsi="http://www.w3.org/2001/XMLSchema-instance" xmlns:wptx1="http://www.garmin.com/xmlschemas/WaypointExtension/v1" xmlns:gpxtrx="http://www.garmin.com/xmlschemas/GpxExtensions/v3" xmlns:gpxtpx="http://www.garmin.com/xmlschemas/TrackPointExtension/v1" xmlns:gpxx="http://www.garmin.com/xmlschemas/GpxExtensions/v3" xmlns:trp="http://www.garmin.com/xmlschemas/TripExtensions/v1" xmlns:adv="http://www.garmin.com/xmlschemas/AdventuresExtensions/v1" xmlns:prs="http://www.garmin.com/xmlschemas/PressureExtension/v1" xmlns:tmd="http://www.garmin.com/xmlschemas/TripMetaDataExtensions/v1" xmlns:vptm="http://www.garmin.com/xmlschemas/ViaPointTransportationModeExtensions/v1" xmlns:ctx="http://www.garmin.com/xmlschemas/CreationTimeExtension/v1" xmlns:gpxacc="http://www.garmin.com/xmlschemas/AccelerationExtension/v1" xmlns:gpxpx="http://www.garmin.com/xmlschemas/PowerExtension/v1" xmlns:vidx1="http://www.garmin.com/xmlschemas/VideoExtension/v1">

  <metadata>
    <link href="http://www.garmin.com">
      <text>Garmin International</text>
    </link>
    <time>2021-05-11T18:43:56Z</time>
    <bounds maxlat="40.650174133479595" maxlon="14.686825051903725" minlat="40.636522695422173" minlon="14.649653155356646" />
  </metadata>

  <wpt lat="40.641313958913088" lon="14.682479035109282">
    <ele>254.96225000000001</ele>
    <time>2016-04-03T07:55:10Z</time>
    <name>Fine 304</name>
    <sym>Trail Head</sym>
    <type>user</type>
    <extensions>
      <gpxx:WaypointExtension>
        <gpxx:DisplayMode>SymbolAndName</gpxx:DisplayMode>
      </gpxx:WaypointExtension>
      <wptx1:WaypointExtension>
        <wptx1:DisplayMode>SymbolAndName</wptx1:DisplayMode>
      </wptx1:WaypointExtension>
      <ctx:CreationTimeExtension>
        <ctx:CreationTime>2016-04-03T07:55:10Z</ctx:CreationTime>
      </ctx:CreationTimeExtension>
    </extensions>
  </wpt>

  <wpt lat="40.648025181144476" lon="14.649681150913239">
    <ele>197.2421875</ele>
    <time>2016-04-03T18:50:22Z</time>
    <name>Inizio 304</name>
    <sym>Trail Head</sym>
    <type>user</type>
    <extensions>
      <gpxx:WaypointExtension>
        <gpxx:DisplayMode>SymbolAndName</gpxx:DisplayMode>
      </gpxx:WaypointExtension>
      <wptx1:WaypointExtension>
        <wptx1:DisplayMode>SymbolAndName</wptx1:DisplayMode>
      </wptx1:WaypointExtension>
      <ctx:CreationTimeExtension>
        <ctx:CreationTime>2016-04-03T18:50:22Z</ctx:CreationTime>
      </ctx:CreationTimeExtension>
    </extensions>
  </wpt>

  <trk>
    <name>304 - Difficolta' E</name>
    <extensions>
      <gpxx:TrackExtension>
        <gpxx:DisplayColor>Red</gpxx:DisplayColor>
      </gpxx:TrackExtension>
    </extensions>
    <trkseg>
      <trkpt lat="40.641394089907408" lon="14.682389851659536">
        <ele>261.07999999999998</ele>
        <time>2021-01-27T15:25:26Z</time>
      </trkpt>
      <trkpt lat="40.641302894800901" lon="14.682493703439832">
        <ele>261.16000000000003</ele>
        <time>2021-01-27T15:25:45Z</time>
      </trkpt>
      <trkpt lat="40.641260733827949" lon="14.682555142790079">
        <ele>264.19999999999999</ele>
        <time>2021-01-27T15:26:00Z</time>
      </trkpt>
      <trkpt lat="40.641136346384883" lon="14.682652121409774">
        <ele>265.52999999999997</ele>
        <time>2021-01-27T15:26:17Z</time>
      </trkpt>
      <trkpt lat="40.641049509868026" lon="14.682728396728635">
        <ele>266.69999999999999</ele>
        <time>2021-01-27T15:26:28Z</time>
      </trkpt>
      <trkpt lat="40.640956722199917" lon="14.682808611541986">
        <ele>266.75</ele>
        <time>2021-01-27T15:26:39Z</time>
      </trkpt>
      <trkpt lat="40.640866700559855" lon="14.682930149137974">
        <ele>264.56999999999999</ele>
        <time>2021-01-27T15:26:52Z</time>
      </trkpt>
      <trkpt lat="40.640794783830643" lon="14.683006424456835">
        <ele>263.47000000000003</ele>
        <time>2021-01-27T15:27:01Z</time>
      </trkpt>
      <trkpt lat="40.64077659510076" lon="14.683017153292894">
        <ele>263.16000000000003</ele>
        <time>2021-01-27T15:27:03Z</time>
      </trkpt>
      <trkpt lat="40.640673413872719" lon="14.683121172711253">
        <ele>264.67000000000002</ele>
        <time>2021-01-27T15:27:16Z</time>
      </trkpt>
      <trkpt lat="40.64066763035953" lon="14.683131566271186">
        <ele>264.58999999999997</ele>
        <time>2021-01-27T15:27:17Z</time>
      </trkpt>
      <trkpt lat="40.640637623146176" lon="14.683164339512587">
        <ele>264.94</ele>
        <time>2021-01-27T15:27:21Z</time>
      </trkpt>
      <trkpt lat="40.640559671446681" lon="14.683253187686205">
        <ele>264.99000000000001</ele>
        <time>2021-01-27T15:27:31Z</time>
      </trkpt>
      <trkpt lat="40.640511894598603" lon="14.683409677818418">
        <ele>264.70999999999998</ele>
        <time>2021-01-27T15:27:47Z</time>
      </trkpt>
      <trkpt lat="40.640449617058039" lon="14.683504644781351">
        <ele>263.29000000000002</ele>
        <time>2021-01-27T15:27:57Z</time>
      </trkpt>
      <trkpt lat="40.640342831611633" lon="14.683641605079174">
        <ele>262.31</ele>
        <time>2021-01-27T15:28:11Z</time>
      </trkpt>
      <trkpt lat="40.640232441946864" lon="14.683784265071154">
        <ele>260.36000000000001</ele>
        <time>2021-01-27T15:28:26Z</time>
      </trkpt>
      <trkpt lat="40.640131523832679" lon="14.683915609493852">
        <ele>258.43000000000001</ele>
        <time>2021-01-27T15:28:41Z</time>
      </trkpt>
      <trkpt lat="40.640052566304803" lon="14.684181567281485">
        <ele>259.17000000000002</ele>
        <time>2021-01-27T15:29:00Z</time>
      </trkpt>
      <trkpt lat="40.64005047082901" lon="14.684269074350595">
        <ele>259.08999999999997</ele>
        <time>2021-01-27T15:29:06Z</time>
      </trkpt>
      <trkpt lat="40.640017110854387" lon="14.684421289712191">
        <ele>259.38</ele>
        <time>2021-01-27T15:29:18Z</time>
      </trkpt>
      <trkpt lat="40.640012500807643" lon="14.684475185349584">
        <ele>258.83999999999997</ele>
        <time>2021-01-27T15:29:22Z</time>
      </trkpt>
      <trkpt lat="40.639966987073421" lon="14.684563698247075">
        <ele>259</ele>
        <time>2021-01-27T15:29:31Z</time>
      </trkpt>
      <trkpt lat="40.639870595186949" lon="14.684682218357921">
        <ele>257.44999999999999</ele>
        <time>2021-01-27T15:29:44Z</time>
      </trkpt>
      <trkpt lat="40.639696083962917" lon="14.684733599424362">
        <ele>256.10000000000002</ele>
        <time>2021-01-27T15:30:02Z</time>
      </trkpt>
      <trkpt lat="40.639557782560587" lon="14.684762684628367">
        <ele>256.50999999999999</ele>
        <time>2021-01-27T15:30:15Z</time>
      </trkpt>
      <trkpt lat="40.639507072046399" lon="14.684783304110169">
        <ele>256.38</ele>
        <time>2021-01-27T15:30:21Z</time>
      </trkpt>
      <trkpt lat="40.639315042644739" lon="14.684881120920181">
        <ele>257.87</ele>
        <time>2021-01-27T15:30:38Z</time>
      </trkpt>
      <trkpt lat="40.639165258035064" lon="14.685028558596969">
        <ele>260.93000000000001</ele>
        <time>2021-01-27T15:30:54Z</time>
      </trkpt>
      <trkpt lat="40.639090994372964" lon="14.685244811698794">
        <ele>262.19</ele>
        <time>2021-01-27T15:31:11Z</time>
      </trkpt>
      <trkpt lat="40.639030979946256" lon="14.685434913262725">
        <ele>264.22000000000003</ele>
        <time>2021-01-27T15:31:27Z</time>
      </trkpt>
      <trkpt lat="40.639003487303853" lon="14.685612609609962">
        <ele>266.08999999999997</ele>
        <time>2021-01-27T15:31:43Z</time>
      </trkpt>
      <trkpt lat="40.638965684920549" lon="14.685721322894096">
        <ele>266.79000000000002</ele>
        <time>2021-01-27T15:32:00Z</time>
      </trkpt>
      <trkpt lat="40.638876166194677" lon="14.685873286798596">
        <ele>268.06</ele>
        <time>2021-01-27T15:32:19Z</time>
      </trkpt>
      <trkpt lat="40.638820845633745" lon="14.6859663259238">
        <ele>269.69999999999999</ele>
        <time>2021-01-27T15:32:31Z</time>
      </trkpt>
      <trkpt lat="40.6387350987643" lon="14.68610018491745">
        <ele>270.31</ele>
        <time>2021-01-27T15:32:44Z</time>
      </trkpt>
      <trkpt lat="40.638602832332253" lon="14.68620965257287">
        <ele>270.75999999999999</ele>
        <time>2021-01-27T15:32:59Z</time>
      </trkpt>
      <trkpt lat="40.638539046049118" lon="14.68623555265367">
        <ele>270.57999999999998</ele>
        <time>2021-01-27T15:33:06Z</time>
      </trkpt>
      <trkpt lat="40.638488251715899" lon="14.686222560703754">
        <ele>270.94999999999999</ele>
        <time>2021-01-27T15:33:11Z</time>
      </trkpt>
      <trkpt lat="40.638435278087854" lon="14.686224739998579">
        <ele>270.92000000000002</ele>
        <time>2021-01-27T15:33:16Z</time>
      </trkpt>
      <trkpt lat="40.638283146545291" lon="14.68620328232646">
        <ele>272.22000000000003</ele>
        <time>2021-01-27T15:33:32Z</time>
      </trkpt>
      <trkpt lat="40.638184826821089" lon="14.686177466064692">
        <ele>274.62</ele>
        <time>2021-01-27T15:33:44Z</time>
      </trkpt>
      <trkpt lat="40.638163788244128" lon="14.686191296204925">
        <ele>274.94999999999999</ele>
        <time>2021-01-27T15:33:46Z</time>
      </trkpt>
      <trkpt lat="40.637956419959664" lon="14.686328256502748">
        <ele>277</ele>
        <time>2021-01-27T15:34:06Z</time>
      </trkpt>
      <trkpt lat="40.637897998094559" lon="14.686352396383882">
        <ele>277.68000000000001</ele>
        <time>2021-01-27T15:34:13Z</time>
      </trkpt>
      <trkpt lat="40.637740334495902" lon="14.686418529599905">
        <ele>276.75</ele>
        <time>2021-01-27T15:34:29Z</time>
      </trkpt>
      <trkpt lat="40.637677554041147" lon="14.686413332819939">
        <ele>276.77999999999997</ele>
        <time>2021-01-27T15:34:36Z</time>
      </trkpt>
      <trkpt lat="40.637475214898586" lon="14.686477202922106">
        <ele>278.31999999999999</ele>
        <time>2021-01-27T15:34:55Z</time>
      </trkpt>
      <trkpt lat="40.637368597090244" lon="14.686549119651318">
        <ele>278.58999999999997</ele>
        <time>2021-01-27T15:35:07Z</time>
      </trkpt>
      <trkpt lat="40.637195175513625" lon="14.68663327395916">
        <ele>278.95999999999998</ele>
        <time>2021-01-27T15:35:24Z</time>
      </trkpt>
      <trkpt lat="40.637184279039502" lon="14.686640230938792">
        <ele>278.97000000000003</ele>
        <time>2021-01-27T15:35:25Z</time>
      </trkpt>
      <trkpt lat="40.637151505798101" lon="14.686645176261663">
        <ele>279.06</ele>
        <time>2021-01-27T15:35:28Z</time>
      </trkpt>
      <trkpt lat="40.636960482224822" lon="14.686738634482026">
        <ele>279.18000000000001</ele>
        <time>2021-01-27T15:35:47Z</time>
      </trkpt>
      <trkpt lat="40.636790161952376" lon="14.686761181801558">
        <ele>280.48000000000002</ele>
        <time>2021-01-27T15:36:04Z</time>
      </trkpt>
      <trkpt lat="40.636750180274248" lon="14.686767971143126">
        <ele>281.10000000000002</ele>
        <time>2021-01-27T15:36:08Z</time>
      </trkpt>
      <trkpt lat="40.636571645736694" lon="14.686825051903725">
        <ele>280.41000000000003</ele>
        <time>2021-01-27T15:36:25Z</time>
      </trkpt>
      <trkpt lat="40.636522695422173" lon="14.686767719686031">
        <ele>282.17000000000002</ele>
        <time>2021-01-27T15:36:40Z</time>
      </trkpt>
      <trkpt lat="40.636526551097631" lon="14.686720110476017">
        <ele>283.11000000000001</ele>
        <time>2021-01-27T15:36:55Z</time>
      </trkpt>
      <trkpt lat="40.636548260226846" lon="14.686644002795219">
        <ele>284.24000000000001</ele>
        <time>2021-01-27T15:37:08Z</time>
      </trkpt>
      <trkpt lat="40.636554379016161" lon="14.686563536524773">
        <ele>284.44</ele>
        <time>2021-01-27T15:37:23Z</time>
      </trkpt>
      <trkpt lat="40.636539794504642" lon="14.686516430228949">
        <ele>283.91000000000003</ele>
        <time>2021-01-27T15:37:37Z</time>
      </trkpt>
      <trkpt lat="40.63653577119112" lon="14.686486423015594">
        <ele>284.31</ele>
        <time>2021-01-27T15:37:49Z</time>
      </trkpt>
      <trkpt lat="40.636537196114659" lon="14.686441328376532">
        <ele>285.63</ele>
        <time>2021-01-27T15:38:05Z</time>
      </trkpt>
      <trkpt lat="40.63654163852334" lon="14.686298668384552">
        <ele>286.25999999999999</ele>
        <time>2021-01-27T15:38:22Z</time>
      </trkpt>
      <trkpt lat="40.63656653277576" lon="14.686215603724122">
        <ele>288.14999999999998</ele>
        <time>2021-01-27T15:38:37Z</time>
      </trkpt>
      <trkpt lat="40.636581536382437" lon="14.686134131625295">
        <ele>287.94</ele>
        <time>2021-01-27T15:38:51Z</time>
      </trkpt>
      <trkpt lat="40.636589834466577" lon="14.686127007007599">
        <ele>288.13999999999999</ele>
        <time>2021-01-27T15:38:54Z</time>
      </trkpt>
      <trkpt lat="40.636612633243203" lon="14.686082415282726">
        <ele>289.37</ele>
        <time>2021-01-27T15:39:06Z</time>
      </trkpt>
      <trkpt lat="40.63662520609796" lon="14.685992142185569">
        <ele>290.88999999999999</ele>
        <time>2021-01-27T15:39:18Z</time>
      </trkpt>
      <trkpt lat="40.636612297967076" lon="14.685934139415622">
        <ele>291.19</ele>
        <time>2021-01-27T15:39:34Z</time>
      </trkpt>
      <trkpt lat="40.636632163077593" lon="14.685915866866708">
        <ele>291.52999999999997</ele>
        <time>2021-01-27T15:40:00Z</time>
      </trkpt>
      <trkpt lat="40.636674994602799" lon="14.685851242393255">
        <ele>292.39999999999998</ele>
        <time>2021-01-27T15:40:13Z</time>
      </trkpt>
      <trkpt lat="40.636720173060894" lon="14.685790725052357">
        <ele>291.86000000000001</ele>
        <time>2021-01-27T15:40:24Z</time>
      </trkpt>
      <trkpt lat="40.636736685410142" lon="14.685675138607621">
        <ele>291.88</ele>
        <time>2021-01-27T15:40:36Z</time>
      </trkpt>
      <trkpt lat="40.63675562851131" lon="14.685569275170565">
        <ele>291.5</ele>
        <time>2021-01-27T15:40:49Z</time>
      </trkpt>
      <trkpt lat="40.636759819462895" lon="14.685554523020983">
        <ele>291.51999999999998</ele>
        <time>2021-01-27T15:40:50Z</time>
      </trkpt>
      <trkpt lat="40.636766944080591" lon="14.685355788096786">
        <ele>291.25999999999999</ele>
        <time>2021-01-27T15:41:07Z</time>
      </trkpt>
      <trkpt lat="40.636767111718655" lon="14.685287475585938">
        <ele>291.49000000000001</ele>
        <time>2021-01-27T15:41:13Z</time>
      </trkpt>
      <trkpt lat="40.636761579662561" lon="14.685091422870755">
        <ele>291.12</ele>
        <time>2021-01-27T15:41:29Z</time>
      </trkpt>
      <trkpt lat="40.636794771999121" lon="14.685008693486452">
        <ele>291.29000000000002</ele>
        <time>2021-01-27T15:41:44Z</time>
      </trkpt>
      <trkpt lat="40.63679376617074" lon="14.684987822547555">
        <ele>291.11000000000001</ele>
        <time>2021-01-27T15:42:23Z</time>
      </trkpt>
      <trkpt lat="40.636804411187768" lon="14.684965275228024">
        <ele>291.19</ele>
        <time>2021-01-27T15:42:25Z</time>
      </trkpt>
      <trkpt lat="40.636823941022158" lon="14.684935351833701">
        <ele>291.32999999999998</ele>
        <time>2021-01-27T15:42:28Z</time>
      </trkpt>
      <trkpt lat="40.636852271854877" lon="14.68485807068646">
        <ele>290.43000000000001</ele>
        <time>2021-01-27T15:42:43Z</time>
      </trkpt>
      <trkpt lat="40.636888649314642" lon="14.684686996042728">
        <ele>289.97000000000003</ele>
        <time>2021-01-27T15:43:01Z</time>
      </trkpt>
      <trkpt lat="40.636894349008799" lon="14.684623461216688">
        <ele>288.99000000000001</ele>
        <time>2021-01-27T15:43:20Z</time>
      </trkpt>
      <trkpt lat="40.636937180534005" lon="14.684480549767613">
        <ele>288.51999999999998</ele>
        <time>2021-01-27T15:43:55Z</time>
      </trkpt>
      <trkpt lat="40.637023011222482" lon="14.684200091287494">
        <ele>287.33999999999997</ele>
        <time>2021-01-27T15:44:19Z</time>
      </trkpt>
      <trkpt lat="40.637070117518306" lon="14.684105040505528">
        <ele>286.97000000000003</ele>
        <time>2021-01-27T15:44:29Z</time>
      </trkpt>
      <trkpt lat="40.637122672051191" lon="14.684032872319221">
        <ele>286.38999999999999</ele>
        <time>2021-01-27T15:44:38Z</time>
      </trkpt>
      <trkpt lat="40.637148907408118" lon="14.684020048007369">
        <ele>286.31999999999999</ele>
        <time>2021-01-27T15:44:41Z</time>
      </trkpt>
      <trkpt lat="40.637177489697933" lon="14.683952741324902">
        <ele>285.69</ele>
        <time>2021-01-27T15:44:48Z</time>
      </trkpt>
      <trkpt lat="40.637214789167047" lon="14.683838663622737">
        <ele>285.77999999999997</ele>
        <time>2021-01-27T15:45:01Z</time>
      </trkpt>
      <trkpt lat="40.637234738096595" lon="14.683744702488184">
        <ele>285.81</ele>
        <time>2021-01-27T15:45:16Z</time>
      </trkpt>
      <trkpt lat="40.637245466932654" lon="14.683732548728585">
        <ele>285.64999999999998</ele>
        <time>2021-01-27T15:45:38Z</time>
      </trkpt>
      <trkpt lat="40.637232474982738" lon="14.683746127411723">
        <ele>285.23000000000002</ele>
        <time>2021-01-27T15:46:06Z</time>
      </trkpt>
      <trkpt lat="40.637242784723639" lon="14.683737410232425">
        <ele>285.14999999999998</ele>
        <time>2021-01-27T15:46:32Z</time>
      </trkpt>
      <trkpt lat="40.637236163020134" lon="14.68359986320138">
        <ele>284.91000000000003</ele>
        <time>2021-01-27T15:46:55Z</time>
      </trkpt>
      <trkpt lat="40.637234821915627" lon="14.683581087738276">
        <ele>284.74000000000001</ele>
        <time>2021-01-27T15:46:57Z</time>
      </trkpt>
      <trkpt lat="40.637213699519634" lon="14.683401212096214">
        <ele>284.45999999999998</ele>
        <time>2021-01-27T15:47:09Z</time>
      </trkpt>
      <trkpt lat="40.637204898521304" lon="14.683355614542961">
        <ele>284.63</ele>
        <time>2021-01-27T15:47:12Z</time>
      </trkpt>
      <trkpt lat="40.637178495526314" lon="14.683290738612413">
        <ele>284.29000000000002</ele>
        <time>2021-01-27T15:47:18Z</time>
      </trkpt>
      <trkpt lat="40.637173969298601" lon="14.683263665065169">
        <ele>284.13999999999999</ele>
        <time>2021-01-27T15:47:20Z</time>
      </trkpt>
      <trkpt lat="40.637164665386081" lon="14.683207338675857">
        <ele>284.30000000000001</ele>
        <time>2021-01-27T15:47:24Z</time>
      </trkpt>
      <trkpt lat="40.637150080874562" lon="14.683072725310922">
        <ele>285.87</ele>
        <time>2021-01-27T15:47:34Z</time>
      </trkpt>
      <trkpt lat="40.637134239077568" lon="14.68300617299974">
        <ele>285.52999999999997</ele>
        <time>2021-01-27T15:47:39Z</time>
      </trkpt>
      <trkpt lat="40.637127282097936" lon="14.682874912396073">
        <ele>284.87</ele>
        <time>2021-01-27T15:47:53Z</time>
      </trkpt>
      <trkpt lat="40.637113787233829" lon="14.682695372030139">
        <ele>286.63999999999999</ele>
        <time>2021-01-27T15:48:11Z</time>
      </trkpt>
      <trkpt lat="40.637068273499608" lon="14.682557489722967">
        <ele>288.62</ele>
        <time>2021-01-27T15:48:24Z</time>
      </trkpt>
      <trkpt lat="40.636993926018476" lon="14.682324472814798">
        <ele>289.27999999999997</ele>
        <time>2021-01-27T15:48:46Z</time>
      </trkpt>
      <trkpt lat="40.636935587972403" lon="14.682126240804791">
        <ele>288.51999999999998</ele>
        <time>2021-01-27T15:49:04Z</time>
      </trkpt>
      <trkpt lat="40.63688806258142" lon="14.682007972151041">
        <ele>287.64999999999998</ele>
        <time>2021-01-27T15:49:21Z</time>
      </trkpt>
      <trkpt lat="40.63687389716506" lon="14.681876376271248">
        <ele>286.73000000000002</ele>
        <time>2021-01-27T15:49:40Z</time>
      </trkpt>
      <trkpt lat="40.636864341795444" lon="14.681851817294955">
        <ele>286.61000000000001</ele>
        <time>2021-01-27T15:50:02Z</time>
      </trkpt>
      <trkpt lat="40.63684313558042" lon="14.681837232783437">
        <ele>286.56999999999999</ele>
        <time>2021-01-27T15:50:38Z</time>
      </trkpt>
      <trkpt lat="40.636841543018818" lon="14.681837735697627">
        <ele>286.26999999999998</ele>
        <time>2021-01-27T15:51:03Z</time>
      </trkpt>
      <trkpt lat="40.636813212186098" lon="14.681770093739033">
        <ele>284.92000000000002</ele>
        <time>2021-01-27T15:51:16Z</time>
      </trkpt>
      <trkpt lat="40.636812122538686" lon="14.681650819256902">
        <ele>283.00999999999999</ele>
        <time>2021-01-27T15:51:31Z</time>
      </trkpt>
      <trkpt lat="40.636833664029837" lon="14.681552918627858">
        <ele>281.86000000000001</ele>
        <time>2021-01-27T15:51:45Z</time>
      </trkpt>
      <trkpt lat="40.636836178600788" lon="14.681389974430203">
        <ele>280.95999999999998</ele>
        <time>2021-01-27T15:52:03Z</time>
      </trkpt>
      <trkpt lat="40.636854870244861" lon="14.681260474026203">
        <ele>278.64999999999998</ele>
        <time>2021-01-27T15:52:16Z</time>
      </trkpt>
      <trkpt lat="40.636851601302624" lon="14.681142456829548">
        <ele>276.57999999999998</ele>
        <time>2021-01-27T15:52:27Z</time>
      </trkpt>
      <trkpt lat="40.636876914650202" lon="14.681043885648251">
        <ele>276.95999999999998</ele>
        <time>2021-01-27T15:52:35Z</time>
      </trkpt>
      <trkpt lat="40.636873729526997" lon="14.681014716625214">
        <ele>281.10000000000002</ele>
        <time>2021-01-27T08:07:39Z</time>
      </trkpt>
      <trkpt lat="40.636904742568731" lon="14.680973896756768">
        <ele>280.80000000000001</ele>
        <time>2021-01-27T08:11:38Z</time>
      </trkpt>
      <trkpt lat="40.63694036565721" lon="14.680915726348758">
        <ele>281.01999999999998</ele>
        <time>2021-01-27T08:11:52Z</time>
      </trkpt>
      <trkpt lat="40.637064585462213" lon="14.680811455473304">
        <ele>282.31</ele>
        <time>2021-01-27T08:12:10Z</time>
      </trkpt>
      <trkpt lat="40.637051509693265" lon="14.680829811841249">
        <ele>282.07999999999998</ele>
        <time>2021-01-27T08:12:23Z</time>
      </trkpt>
      <trkpt lat="40.637087132781744" lon="14.680796368047595">
        <ele>282.10000000000002</ele>
        <time>2021-01-27T08:12:37Z</time>
      </trkpt>
      <trkpt lat="40.637096352875233" lon="14.680795529857278">
        <ele>282.22000000000003</ele>
        <time>2021-01-27T08:12:38Z</time>
      </trkpt>
      <trkpt lat="40.637114541605115" lon="14.680788405239582">
        <ele>282.39999999999998</ele>
        <time>2021-01-27T08:12:40Z</time>
      </trkpt>
      <trkpt lat="40.637262398377061" lon="14.680710453540087">
        <ele>283.06999999999999</ele>
        <time>2021-01-27T08:12:58Z</time>
      </trkpt>
      <trkpt lat="40.637459624558687" lon="14.680594950914383">
        <ele>282.63999999999999</ele>
        <time>2021-01-27T08:13:22Z</time>
      </trkpt>
      <trkpt lat="40.637632627040148" lon="14.680463187396526">
        <ele>283.56</ele>
        <time>2021-01-27T08:13:45Z</time>
      </trkpt>
      <trkpt lat="40.637776544317603" lon="14.680371237918735">
        <ele>285.55000000000001</ele>
        <time>2021-01-27T08:14:04Z</time>
      </trkpt>
      <trkpt lat="40.637792218476534" lon="14.680357072502375">
        <ele>285.99000000000001</ele>
        <time>2021-01-27T08:14:06Z</time>
      </trkpt>
      <trkpt lat="40.637987265363336" lon="14.6802141610533">
        <ele>286.81999999999999</ele>
        <time>2021-01-27T08:14:27Z</time>
      </trkpt>
      <trkpt lat="40.638105114921927" lon="14.680089270696044">
        <ele>285.75</ele>
        <time>2021-01-27T08:14:48Z</time>
      </trkpt>
      <trkpt lat="40.638121291995049" lon="14.680071333423257">
        <ele>285.85000000000002</ele>
        <time>2021-01-27T08:14:50Z</time>
      </trkpt>
      <trkpt lat="40.638178624212742" lon="14.680013582110405">
        <ele>285.38</ele>
        <time>2021-01-27T08:14:56Z</time>
      </trkpt>
      <trkpt lat="40.638258503749967" lon="14.679871760308743">
        <ele>284.85000000000002</ele>
        <time>2021-01-27T08:15:09Z</time>
      </trkpt>
      <trkpt lat="40.638262694701552" lon="14.679845692589879">
        <ele>284.70999999999998</ele>
        <time>2021-01-27T08:15:11Z</time>
      </trkpt>
      <trkpt lat="40.63832220621407" lon="14.679634720087051">
        <ele>285.07999999999998</ele>
        <time>2021-01-27T08:15:30Z</time>
      </trkpt>
      <trkpt lat="40.638361936435103" lon="14.67951150611043">
        <ele>286.39999999999998</ele>
        <time>2021-01-27T08:15:43Z</time>
      </trkpt>
      <trkpt lat="40.63841113820672" lon="14.679408576339483">
        <ele>287.74000000000001</ele>
        <time>2021-01-27T08:15:55Z</time>
      </trkpt>
      <trkpt lat="40.638452460989356" lon="14.67930631712079">
        <ele>288.72000000000003</ele>
        <time>2021-01-27T08:16:06Z</time>
      </trkpt>
      <trkpt lat="40.638497387990355" lon="14.679175056517124">
        <ele>290.17000000000002</ele>
        <time>2021-01-27T08:16:22Z</time>
      </trkpt>
      <trkpt lat="40.638583386316895" lon="14.679085118696094">
        <ele>292.02999999999997</ele>
        <time>2021-01-27T08:16:39Z</time>
      </trkpt>
      <trkpt lat="40.63861146569252" lon="14.678979506716132">
        <ele>293.37</ele>
        <time>2021-01-27T08:16:55Z</time>
      </trkpt>
      <trkpt lat="40.638631749898195" lon="14.678874397650361">
        <ele>294.88999999999999</ele>
        <time>2021-01-27T08:17:12Z</time>
      </trkpt>
      <trkpt lat="40.638658236712217" lon="14.678744561970234">
        <ele>297.87</ele>
        <time>2021-01-27T08:17:30Z</time>
      </trkpt>
      <trkpt lat="40.638664774596691" lon="14.678609361872077">
        <ele>299.43000000000001</ele>
        <time>2021-01-27T08:17:45Z</time>
      </trkpt>
      <trkpt lat="40.638745911419392" lon="14.678484387695789">
        <ele>299.31999999999999</ele>
        <time>2021-01-27T08:18:00Z</time>
      </trkpt>
      <trkpt lat="40.638862168416381" lon="14.678466785699129">
        <ele>298.74000000000001</ele>
        <time>2021-01-27T08:18:15Z</time>
      </trkpt>
      <trkpt lat="40.638986639678478" lon="14.678430994972587">
        <ele>298.10000000000002</ele>
        <time>2021-01-27T08:18:31Z</time>
      </trkpt>
      <trkpt lat="40.639082193374634" lon="14.678335608914495">
        <ele>296.19</ele>
        <time>2021-01-27T08:18:48Z</time>
      </trkpt>
      <trkpt lat="40.639138603582978" lon="14.678224213421345">
        <ele>294.44999999999999</ele>
        <time>2021-01-27T08:19:03Z</time>
      </trkpt>
      <trkpt lat="40.639185206964612" lon="14.678086247295141">
        <ele>292.64999999999998</ele>
        <time>2021-01-27T08:19:19Z</time>
      </trkpt>
      <trkpt lat="40.639223931357265" lon="14.678013995289803">
        <ele>291.82999999999998</ele>
        <time>2021-01-27T08:19:26Z</time>
      </trkpt>
      <trkpt lat="40.639264499768615" lon="14.677938390523195">
        <ele>291.02999999999997</ele>
        <time>2021-01-27T08:19:33Z</time>
      </trkpt>
      <trkpt lat="40.639363992959261" lon="14.677833197638392">
        <ele>289.29000000000002</ele>
        <time>2021-01-27T08:19:46Z</time>
      </trkpt>
      <trkpt lat="40.639459379017353" lon="14.6777568385005">
        <ele>286.80000000000001</ele>
        <time>2021-01-27T08:20:03Z</time>
      </trkpt>
      <trkpt lat="40.639575300738215" lon="14.677699254825711">
        <ele>286.24000000000001</ele>
        <time>2021-01-27T08:20:18Z</time>
      </trkpt>
      <trkpt lat="40.639613270759583" lon="14.677685257047415">
        <ele>286.02999999999997</ele>
        <time>2021-01-27T08:20:22Z</time>
      </trkpt>
      <trkpt lat="40.639725001528859" lon="14.677592134103179">
        <ele>286.14999999999998</ele>
        <time>2021-01-27T08:20:38Z</time>
      </trkpt>
      <trkpt lat="40.639855759218335" lon="14.677515691146255">
        <ele>285.38</ele>
        <time>2021-01-27T08:20:56Z</time>
      </trkpt>
      <trkpt lat="40.639974446967244" lon="14.677519463002682">
        <ele>284.79000000000002</ele>
        <time>2021-01-27T08:21:10Z</time>
      </trkpt>
      <trkpt lat="40.640107551589608" lon="14.677433045580983">
        <ele>284.63999999999999</ele>
        <time>2021-01-27T08:21:27Z</time>
      </trkpt>
      <trkpt lat="40.640137055888772" lon="14.67725794762373">
        <ele>286.77999999999997</ele>
        <time>2021-01-27T08:21:46Z</time>
      </trkpt>
      <trkpt lat="40.640168655663729" lon="14.67711285687983">
        <ele>288.95999999999998</ele>
        <time>2021-01-27T08:22:06Z</time>
      </trkpt>
      <trkpt lat="40.640209224075079" lon="14.676964161917567">
        <ele>291.45999999999998</ele>
        <time>2021-01-27T08:22:27Z</time>
      </trkpt>
      <trkpt lat="40.640215845778584" lon="14.67681035399437">
        <ele>294.50999999999999</ele>
        <time>2021-01-27T08:22:49Z</time>
      </trkpt>
      <trkpt lat="40.640202770009637" lon="14.676677417010069">
        <ele>296.85000000000002</ele>
        <time>2021-01-27T08:23:08Z</time>
      </trkpt>
      <trkpt lat="40.640254067257047" lon="14.676625030115247">
        <ele>297.99000000000001</ele>
        <time>2021-01-27T08:23:22Z</time>
      </trkpt>
      <trkpt lat="40.640247613191605" lon="14.676524363458157">
        <ele>300.38</ele>
        <time>2021-01-27T08:23:40Z</time>
      </trkpt>
      <trkpt lat="40.640259347856045" lon="14.676428558304906">
        <ele>302.85000000000002</ele>
        <time>2021-01-27T08:23:58Z</time>
      </trkpt>
      <trkpt lat="40.640261443331838" lon="14.676326885819435">
        <ele>305.62</ele>
        <time>2021-01-27T08:24:18Z</time>
      </trkpt>
      <trkpt lat="40.640256246551871" lon="14.676236780360341">
        <ele>307.07999999999998</ele>
        <time>2021-01-27T08:24:34Z</time>
      </trkpt>
      <trkpt lat="40.640203692018986" lon="14.676176011562347">
        <ele>308.63</ele>
        <time>2021-01-27T08:24:47Z</time>
      </trkpt>
      <trkpt lat="40.640150550752878" lon="14.676105435937643">
        <ele>309.94</ele>
        <time>2021-01-27T08:25:01Z</time>
      </trkpt>
      <trkpt lat="40.640113251283765" lon="14.676053132861853">
        <ele>310.63999999999999</ele>
        <time>2021-01-27T08:25:16Z</time>
      </trkpt>
      <trkpt lat="40.640049129724503" lon="14.675978617742658">
        <ele>312.04000000000002</ele>
        <time>2021-01-27T08:25:32Z</time>
      </trkpt>
      <trkpt lat="40.639998922124505" lon="14.675905108451843">
        <ele>314.19</ele>
        <time>2021-01-27T08:25:48Z</time>
      </trkpt>
      <trkpt lat="40.639957683160901" lon="14.675806704908609">
        <ele>315.72000000000003</ele>
        <time>2021-01-27T08:26:05Z</time>
      </trkpt>
      <trkpt lat="40.639940500259399" lon="14.675743170082569">
        <ele>317.54000000000002</ele>
        <time>2021-01-27T08:26:19Z</time>
      </trkpt>
      <trkpt lat="40.639947121962905" lon="14.675689525902271">
        <ele>319.26999999999998</ele>
        <time>2021-01-27T08:26:33Z</time>
      </trkpt>
      <trkpt lat="40.639951312914491" lon="14.675648035481572">
        <ele>320.33999999999997</ele>
        <time>2021-01-27T08:27:36Z</time>
      </trkpt>
      <trkpt lat="40.639973189681768" lon="14.675627583637834">
        <ele>320.83999999999997</ele>
        <time>2021-01-27T08:28:15Z</time>
      </trkpt>
      <trkpt lat="40.640005208551884" lon="14.675592882558703">
        <ele>321.61000000000001</ele>
        <time>2021-01-27T08:28:31Z</time>
      </trkpt>
      <trkpt lat="40.640053572133183" lon="14.675493473187089">
        <ele>323.67000000000002</ele>
        <time>2021-01-27T08:28:47Z</time>
      </trkpt>
      <trkpt lat="40.640116855502129" lon="14.675441673025489">
        <ele>325.64999999999998</ele>
        <time>2021-01-27T08:29:04Z</time>
      </trkpt>
      <trkpt lat="40.640162788331509" lon="14.675342682749033">
        <ele>327.81</ele>
        <time>2021-01-27T08:29:20Z</time>
      </trkpt>
      <trkpt lat="40.64021123573184" lon="14.675241596996784">
        <ele>330.63</ele>
        <time>2021-01-27T08:29:38Z</time>
      </trkpt>
      <trkpt lat="40.640258509665728" lon="14.675170769914985">
        <ele>329.70999999999998</ele>
        <time>2021-01-27T08:29:53Z</time>
      </trkpt>
      <trkpt lat="40.640284074470401" lon="14.675157526507974">
        <ele>329.85000000000002</ele>
        <time>2021-01-27T08:30:05Z</time>
      </trkpt>
      <trkpt lat="40.640280051156878" lon="14.675118802115321">
        <ele>328.45999999999998</ele>
        <time>2021-01-27T08:30:23Z</time>
      </trkpt>
      <trkpt lat="40.640317015349865" lon="14.675006316974759">
        <ele>326.79000000000002</ele>
        <time>2021-01-27T08:30:41Z</time>
      </trkpt>
      <trkpt lat="40.64033193513751" lon="14.674943620339036">
        <ele>325.20999999999998</ele>
        <time>2021-01-27T08:30:55Z</time>
      </trkpt>
      <trkpt lat="40.640365798026323" lon="14.674896011129022">
        <ele>323.31999999999999</ele>
        <time>2021-01-27T08:31:08Z</time>
      </trkpt>
      <trkpt lat="40.640427907928824" lon="14.674805235117674">
        <ele>322.64999999999998</ele>
        <time>2021-01-27T08:31:25Z</time>
      </trkpt>
      <trkpt lat="40.640479708090425" lon="14.674711609259248">
        <ele>322.38</ele>
        <time>2021-01-27T08:31:39Z</time>
      </trkpt>
      <trkpt lat="40.640502003952861" lon="14.674624102190137">
        <ele>320.27999999999997</ele>
        <time>2021-01-27T08:31:52Z</time>
      </trkpt>
      <trkpt lat="40.640546260401607" lon="14.674511784687638">
        <ele>319.01999999999998</ele>
        <time>2021-01-27T08:32:08Z</time>
      </trkpt>
      <trkpt lat="40.640580374747515" lon="14.674424696713686">
        <ele>317.58999999999997</ele>
        <time>2021-01-27T08:32:23Z</time>
      </trkpt>
      <trkpt lat="40.640603005886078" lon="14.674330400303006">
        <ele>316.45999999999998</ele>
        <time>2021-01-27T08:32:39Z</time>
      </trkpt>
      <trkpt lat="40.64065296202898" lon="14.674207353964448">
        <ele>315.31</ele>
        <time>2021-01-27T08:32:54Z</time>
      </trkpt>
      <trkpt lat="40.640713144093752" lon="14.674107693135738">
        <ele>313.64999999999998</ele>
        <time>2021-01-27T08:33:09Z</time>
      </trkpt>
      <trkpt lat="40.640743486583233" lon="14.673986993730068">
        <ele>311.70999999999998</ele>
        <time>2021-01-27T08:33:25Z</time>
      </trkpt>
      <trkpt lat="40.640726052224636" lon="14.673834107816219">
        <ele>310.05000000000001</ele>
        <time>2021-01-27T08:33:44Z</time>
      </trkpt>
      <trkpt lat="40.640704594552517" lon="14.673662865534425">
        <ele>309.33999999999997</ele>
        <time>2021-01-27T08:34:02Z</time>
      </trkpt>
      <trkpt lat="40.640677353367209" lon="14.673498831689358">
        <ele>309.07999999999998</ele>
        <time>2021-01-27T08:34:20Z</time>
      </trkpt>
      <trkpt lat="40.640687327831984" lon="14.673341251909733">
        <ele>308.72000000000003</ele>
        <time>2021-01-27T08:34:36Z</time>
      </trkpt>
      <trkpt lat="40.640728231519461" lon="14.673227174207568">
        <ele>307.95999999999998</ele>
        <time>2021-01-27T08:34:51Z</time>
      </trkpt>
      <trkpt lat="40.640767039731145" lon="14.67312659136951">
        <ele>306.50999999999999</ele>
        <time>2021-01-27T08:35:06Z</time>
      </trkpt>
      <trkpt lat="40.640796795487404" lon="14.673076635226607">
        <ele>306.80000000000001</ele>
        <time>2021-01-27T08:35:20Z</time>
      </trkpt>
      <trkpt lat="40.640804087743163" lon="14.673009412363172">
        <ele>306.50999999999999</ele>
        <time>2021-01-27T08:35:38Z</time>
      </trkpt>
      <trkpt lat="40.640818001702428" lon="14.672929449006915">
        <ele>305.30000000000001</ele>
        <time>2021-01-27T08:35:55Z</time>
      </trkpt>
      <trkpt lat="40.640818923711777" lon="14.672907153144479">
        <ele>304.79000000000002</ele>
        <time>2021-01-27T08:36:10Z</time>
      </trkpt>
      <trkpt lat="40.640811715275049" lon="14.672878067940474">
        <ele>304.25</ele>
        <time>2021-01-27T08:36:28Z</time>
      </trkpt>
      <trkpt lat="40.640812637284398" lon="14.672876978293061">
        <ele>303.13999999999999</ele>
        <time>2021-01-27T08:37:14Z</time>
      </trkpt>
      <trkpt lat="40.640817750245333" lon="14.672861136496067">
        <ele>303.12</ele>
        <time>2021-01-27T08:40:54Z</time>
      </trkpt>
      <trkpt lat="40.640828730538487" lon="14.672823082655668">
        <ele>302.37</ele>
        <time>2021-01-27T08:41:17Z</time>
      </trkpt>
      <trkpt lat="40.640834094956517" lon="14.672714034095407">
        <ele>300.31999999999999</ele>
        <time>2021-01-27T08:41:36Z</time>
      </trkpt>
      <trkpt lat="40.640858737751842" lon="14.672581180930138">
        <ele>298.67000000000002</ele>
        <time>2021-01-27T08:41:56Z</time>
      </trkpt>
      <trkpt lat="40.640924787148833" lon="14.672463834285736">
        <ele>298.75999999999999</ele>
        <time>2021-01-27T08:42:16Z</time>
      </trkpt>
      <trkpt lat="40.640996620059013" lon="14.672356881201267">
        <ele>300.64999999999998</ele>
        <time>2021-01-27T08:42:36Z</time>
      </trkpt>
      <trkpt lat="40.641010785475373" lon="14.672211706638336">
        <ele>300.63999999999999</ele>
        <time>2021-01-27T08:42:47Z</time>
      </trkpt>
      <trkpt lat="40.641013300046325" lon="14.672111459076405">
        <ele>300.13</ele>
        <time>2021-01-27T08:42:54Z</time>
      </trkpt>
      <trkpt lat="40.641013383865356" lon="14.672040799632668">
        <ele>300.05000000000001</ele>
        <time>2021-01-27T08:42:59Z</time>
      </trkpt>
      <trkpt lat="40.641023190692067" lon="14.671904090791941">
        <ele>299.99000000000001</ele>
        <time>2021-01-27T08:43:11Z</time>
      </trkpt>
      <trkpt lat="40.64100282266736" lon="14.671779116615653">
        <ele>298.76999999999998</ele>
        <time>2021-01-27T08:43:23Z</time>
      </trkpt>
      <trkpt lat="40.640998799353838" lon="14.671744164079428">
        <ele>299.14999999999998</ele>
        <time>2021-01-27T08:43:25Z</time>
      </trkpt>
      <trkpt lat="40.640946496278048" lon="14.671599995344877">
        <ele>298.33999999999997</ele>
        <time>2021-01-27T08:43:39Z</time>
      </trkpt>
      <trkpt lat="40.640928810462356" lon="14.671516260132194">
        <ele>296.85000000000002</ele>
        <time>2021-01-27T08:43:56Z</time>
      </trkpt>
      <trkpt lat="40.640873908996582" lon="14.671423388645053">
        <ele>294.5</ele>
        <time>2021-01-27T08:44:08Z</time>
      </trkpt>
      <trkpt lat="40.640853624790907" lon="14.671302186325192">
        <ele>291.72000000000003</ele>
        <time>2021-01-27T08:44:28Z</time>
      </trkpt>
      <trkpt lat="40.640805177390575" lon="14.671208476647735">
        <ele>289.27999999999997</ele>
        <time>2021-01-27T08:44:49Z</time>
      </trkpt>
      <trkpt lat="40.640808613970876" lon="14.671163884922862">
        <ele>287.47000000000003</ele>
        <time>2021-01-27T08:45:09Z</time>
      </trkpt>
      <trkpt lat="40.640771649777889" lon="14.671088783070445">
        <ele>284.38</ele>
        <time>2021-01-27T08:45:22Z</time>
      </trkpt>
      <trkpt lat="40.640781875699759" lon="14.670998845249414">
        <ele>281.74000000000001</ele>
        <time>2021-01-27T08:45:36Z</time>
      </trkpt>
      <trkpt lat="40.640787491574883" lon="14.670928688719869">
        <ele>278.66000000000003</ele>
        <time>2021-01-27T08:45:51Z</time>
      </trkpt>
      <trkpt lat="40.640708282589912" lon="14.670906728133559">
        <ele>275.64999999999998</ele>
        <time>2021-01-27T08:46:08Z</time>
      </trkpt>
      <trkpt lat="40.640742229297757" lon="14.670795500278473">
        <ele>272.82999999999998</ele>
        <time>2021-01-27T08:46:27Z</time>
      </trkpt>
      <trkpt lat="40.640772404149175" lon="14.67067371122539">
        <ele>270.07999999999998</ele>
        <time>2021-01-27T08:46:43Z</time>
      </trkpt>
      <trkpt lat="40.640806183218956" lon="14.670572960749269">
        <ele>266.87</ele>
        <time>2021-01-27T08:46:56Z</time>
      </trkpt>
      <trkpt lat="40.640861839056015" lon="14.670553430914879">
        <ele>265.31</ele>
        <time>2021-01-27T08:47:10Z</time>
      </trkpt>
      <trkpt lat="40.640968373045325" lon="14.670494422316551">
        <ele>262.29000000000002</ele>
        <time>2021-01-27T08:47:27Z</time>
      </trkpt>
      <trkpt lat="40.64107071608305" lon="14.670475227758288">
        <ele>259.00999999999999</ele>
        <time>2021-01-27T08:47:42Z</time>
      </trkpt>
      <trkpt lat="40.641201892867684" lon="14.670478580519557">
        <ele>256.73000000000002</ele>
        <time>2021-01-27T08:48:00Z</time>
      </trkpt>
      <trkpt lat="40.641302391886711" lon="14.670545719563961">
        <ele>254.15000000000001</ele>
        <time>2021-01-27T08:48:16Z</time>
      </trkpt>
      <trkpt lat="40.641361149027944" lon="14.670639764517546">
        <ele>251.91999999999999</ele>
        <time>2021-01-27T08:48:34Z</time>
      </trkpt>
      <trkpt lat="40.641422839835286" lon="14.670747388154268">
        <ele>249.47</ele>
        <time>2021-01-27T08:48:50Z</time>
      </trkpt>
      <trkpt lat="40.641556112095714" lon="14.670834811404347">
        <ele>247.09</ele>
        <time>2021-01-27T08:49:08Z</time>
      </trkpt>
      <trkpt lat="40.641642278060317" lon="14.670806899666786">
        <ele>245.77000000000001</ele>
        <time>2021-01-27T08:49:20Z</time>
      </trkpt>
      <trkpt lat="40.641702879220247" lon="14.670774294063449">
        <ele>243.47999999999999</ele>
        <time>2021-01-27T08:49:39Z</time>
      </trkpt>
      <trkpt lat="40.641746381297708" lon="14.670714531093836">
        <ele>242.30000000000001</ele>
        <time>2021-01-27T08:50:04Z</time>
      </trkpt>
      <trkpt lat="40.641737412661314" lon="14.670704724267125">
        <ele>241.63999999999999</ele>
        <time>2021-01-27T08:50:28Z</time>
      </trkpt>
      <trkpt lat="40.641790134832263" lon="14.670637669041753">
        <ele>238.56999999999999</ele>
        <time>2021-01-27T08:50:47Z</time>
      </trkpt>
      <trkpt lat="40.64182517118752" lon="14.670586287975311">
        <ele>235.53</ele>
        <time>2021-01-27T08:51:03Z</time>
      </trkpt>
      <trkpt lat="40.641886778175831" lon="14.670513868331909">
        <ele>232.62</ele>
        <time>2021-01-27T08:51:23Z</time>
      </trkpt>
      <trkpt lat="40.641941344365478" lon="14.670492326840758">
        <ele>229.59</ele>
        <time>2021-01-27T08:51:38Z</time>
      </trkpt>
      <trkpt lat="40.642019966617227" lon="14.670567428693175">
        <ele>230</ele>
        <time>2021-01-27T08:51:58Z</time>
      </trkpt>
      <trkpt lat="40.642124488949776" lon="14.670639261603355">
        <ele>232.75</ele>
        <time>2021-01-27T08:52:14Z</time>
      </trkpt>
      <trkpt lat="40.642216689884663" lon="14.670726014301181">
        <ele>235.75999999999999</ele>
        <time>2021-01-27T08:52:34Z</time>
      </trkpt>
      <trkpt lat="40.642320206388831" lon="14.670843025669456">
        <ele>237.47</ele>
        <time>2021-01-27T08:52:54Z</time>
      </trkpt>
      <trkpt lat="40.642434535548091" lon="14.670950984582305">
        <ele>239.97999999999999</ele>
        <time>2021-01-27T08:53:15Z</time>
      </trkpt>
      <trkpt lat="40.642501590773463" lon="14.671061541885138">
        <ele>242.58000000000001</ele>
        <time>2021-01-27T08:53:33Z</time>
      </trkpt>
      <trkpt lat="40.642590522766113" lon="14.671172937378287">
        <ele>245.58000000000001</ele>
        <time>2021-01-27T08:53:55Z</time>
      </trkpt>
      <trkpt lat="40.642676604911685" lon="14.671227671205997">
        <ele>248.65000000000001</ele>
        <time>2021-01-27T08:54:12Z</time>
      </trkpt>
      <trkpt lat="40.642765033990145" lon="14.671250553801656">
        <ele>251.38</ele>
        <time>2021-01-27T08:54:31Z</time>
      </trkpt>
      <trkpt lat="40.642837788909674" lon="14.671316267922521">
        <ele>254.09</ele>
        <time>2021-01-27T08:54:50Z</time>
      </trkpt>
      <trkpt lat="40.642951196059585" lon="14.67134996317327">
        <ele>257.17000000000002</ele>
        <time>2021-01-27T08:55:10Z</time>
      </trkpt>
      <trkpt lat="40.64305161125958" lon="14.671395225450397">
        <ele>259.64999999999998</ele>
        <time>2021-01-27T08:55:31Z</time>
      </trkpt>
      <trkpt lat="40.643150769174099" lon="14.67145842500031">
        <ele>262.52999999999997</ele>
        <time>2021-01-27T08:55:51Z</time>
      </trkpt>
      <trkpt lat="40.643232576549053" lon="14.671525564044714">
        <ele>265.61000000000001</ele>
        <time>2021-01-27T08:56:11Z</time>
      </trkpt>
      <trkpt lat="40.643330812454224" lon="14.671622710302472">
        <ele>268.94</ele>
        <time>2021-01-27T08:56:31Z</time>
      </trkpt>
      <trkpt lat="40.643419660627842" lon="14.671716252341866">
        <ele>268.85000000000002</ele>
        <time>2021-01-27T08:56:51Z</time>
      </trkpt>
      <trkpt lat="40.643506161868572" lon="14.671774925664067">
        <ele>267.89999999999998</ele>
        <time>2021-01-27T08:57:09Z</time>
      </trkpt>
      <trkpt lat="40.643508341163397" lon="14.671779787167907">
        <ele>267.82999999999998</ele>
        <time>2021-01-27T08:57:10Z</time>
      </trkpt>
      <trkpt lat="40.643624933436513" lon="14.6718889195472">
        <ele>267.27999999999997</ele>
        <time>2021-01-27T08:57:29Z</time>
      </trkpt>
      <trkpt lat="40.643778825178742" lon="14.672033255919814">
        <ele>267.49000000000001</ele>
        <time>2021-01-27T08:57:49Z</time>
      </trkpt>
      <trkpt lat="40.643850741907954" lon="14.672045325860381">
        <ele>266.18000000000001</ele>
        <time>2021-01-27T08:58:12Z</time>
      </trkpt>
      <trkpt lat="40.643870774656534" lon="14.672077680006623">
        <ele>267.36000000000001</ele>
        <time>2021-01-27T08:58:19Z</time>
      </trkpt>
      <trkpt lat="40.643934477120638" lon="14.671989167109132">
        <ele>269.37</ele>
        <time>2021-01-27T08:58:40Z</time>
      </trkpt>
      <trkpt lat="40.643969681113958" lon="14.671894703060389">
        <ele>270.83999999999997</ele>
        <time>2021-01-27T08:59:00Z</time>
      </trkpt>
      <trkpt lat="40.64404109492898" lon="14.671832090243697">
        <ele>271.97000000000003</ele>
        <time>2021-01-27T08:59:20Z</time>
      </trkpt>
      <trkpt lat="40.644090129062533" lon="14.6718146558851">
        <ele>273.17000000000002</ele>
        <time>2021-01-27T08:59:43Z</time>
      </trkpt>
      <trkpt lat="40.644107395783067" lon="14.671766459941864">
        <ele>274.45999999999998</ele>
        <time>2021-01-27T09:00:04Z</time>
      </trkpt>
      <trkpt lat="40.644123572856188" lon="14.671591948717833">
        <ele>275.50999999999999</ele>
        <time>2021-01-27T09:00:26Z</time>
      </trkpt>
      <trkpt lat="40.644147796556354" lon="14.671470746397972">
        <ele>276.83999999999997</ele>
        <time>2021-01-27T09:00:40Z</time>
      </trkpt>
      <trkpt lat="40.644176378846169" lon="14.671281985938549">
        <ele>276.13999999999999</ele>
        <time>2021-01-27T09:01:05Z</time>
      </trkpt>
      <trkpt lat="40.644197668880224" lon="14.671198586001992">
        <ele>274.62</ele>
        <time>2021-01-27T09:01:18Z</time>
      </trkpt>
      <trkpt lat="40.644285762682557" lon="14.670992307364941">
        <ele>271.88</ele>
        <time>2021-01-27T09:01:40Z</time>
      </trkpt>
      <trkpt lat="40.644244523718953" lon="14.670817712321877">
        <ele>267.74000000000001</ele>
        <time>2021-01-27T09:09:16Z</time>
      </trkpt>
      <trkpt lat="40.644208732992411" lon="14.670742359012365">
        <ele>266.67000000000002</ele>
        <time>2021-01-27T09:09:26Z</time>
      </trkpt>
      <trkpt lat="40.644113514572382" lon="14.670595759525895">
        <ele>265.44999999999999</ele>
        <time>2021-01-27T09:09:44Z</time>
      </trkpt>
      <trkpt lat="40.644084680825472" lon="14.670456452295184">
        <ele>266.81</ele>
        <time>2021-01-27T09:09:59Z</time>
      </trkpt>
      <trkpt lat="40.644069844856858" lon="14.670287389308214">
        <ele>269.20999999999998</ele>
        <time>2021-01-27T09:10:48Z</time>
      </trkpt>
      <trkpt lat="40.64408116042614" lon="14.670204324647784">
        <ele>269.41000000000003</ele>
        <time>2021-01-27T09:10:55Z</time>
      </trkpt>
      <trkpt lat="40.644102953374386" lon="14.670139281079173">
        <ele>268.87</ele>
        <time>2021-01-27T09:11:01Z</time>
      </trkpt>
      <trkpt lat="40.644118124619126" lon="14.670127294957638">
        <ele>269.00999999999999</ele>
        <time>2021-01-27T09:11:03Z</time>
      </trkpt>
      <trkpt lat="40.644140252843499" lon="14.670065687969327">
        <ele>269.13999999999999</ele>
        <time>2021-01-27T09:11:09Z</time>
      </trkpt>
      <trkpt lat="40.644254498183727" lon="14.669813057407737">
        <ele>271.57999999999998</ele>
        <time>2021-01-27T09:11:44Z</time>
      </trkpt>
      <trkpt lat="40.644283248111606" lon="14.669675594195724">
        <ele>270.16000000000003</ele>
        <time>2021-01-27T09:12:03Z</time>
      </trkpt>
      <trkpt lat="40.64426246099174" lon="14.669655561447144">
        <ele>268.39999999999998</ele>
        <time>2021-01-27T09:12:20Z</time>
      </trkpt>
      <trkpt lat="40.644231867045164" lon="14.669657656922936">
        <ele>266.50999999999999</ele>
        <time>2021-01-27T09:12:36Z</time>
      </trkpt>
      <trkpt lat="40.644223652780056" lon="14.669604348018765">
        <ele>263.81</ele>
        <time>2021-01-27T09:12:56Z</time>
      </trkpt>
      <trkpt lat="40.644205966964364" lon="14.669531425461173">
        <ele>260.64999999999998</ele>
        <time>2021-01-27T09:13:08Z</time>
      </trkpt>
      <trkpt lat="40.644244188442826" lon="14.669452803209424">
        <ele>258.44999999999999</ele>
        <time>2021-01-27T09:13:26Z</time>
      </trkpt>
      <trkpt lat="40.64423949457705" lon="14.669403601437807">
        <ele>259.41000000000003</ele>
        <time>2021-01-27T09:22:30Z</time>
      </trkpt>
      <trkpt lat="40.644154585897923" lon="14.669392285868526">
        <ele>256.41000000000003</ele>
        <time>2021-01-27T09:22:48Z</time>
      </trkpt>
      <trkpt lat="40.644140336662531" lon="14.669406954199076">
        <ele>255.56999999999999</ele>
        <time>2021-01-27T09:23:11Z</time>
      </trkpt>
      <trkpt lat="40.644121477380395" lon="14.669357165694237">
        <ele>253.12</ele>
        <time>2021-01-27T09:23:37Z</time>
      </trkpt>
      <trkpt lat="40.644085854291916" lon="14.669324308633804">
        <ele>251.69999999999999</ele>
        <time>2021-01-27T09:23:46Z</time>
      </trkpt>
      <trkpt lat="40.644116448238492" lon="14.669239819049835">
        <ele>249.03999999999999</ele>
        <time>2021-01-27T09:24:02Z</time>
      </trkpt>
      <trkpt lat="40.644077388569713" lon="14.669198831543326">
        <ele>246.13</ele>
        <time>2021-01-27T09:24:19Z</time>
      </trkpt>
      <trkpt lat="40.643996503204107" lon="14.669197490438819">
        <ele>245.03</ele>
        <time>2021-01-27T09:24:32Z</time>
      </trkpt>
      <trkpt lat="40.643939422443509" lon="14.669242333620787">
        <ele>242.83000000000001</ele>
        <time>2021-01-27T09:24:51Z</time>
      </trkpt>
      <trkpt lat="40.643891394138336" lon="14.669216852635145">
        <ele>240.28999999999999</ele>
        <time>2021-01-27T09:25:12Z</time>
      </trkpt>
      <trkpt lat="40.643896339461207" lon="14.66915113851428">
        <ele>237.19</ele>
        <time>2021-01-27T09:25:28Z</time>
      </trkpt>
      <trkpt lat="40.643901033326983" lon="14.669127753004432">
        <ele>236.75999999999999</ele>
        <time>2021-01-27T09:25:30Z</time>
      </trkpt>
      <trkpt lat="40.643934896215796" lon="14.669040329754353">
        <ele>236.44999999999999</ele>
        <time>2021-01-27T09:25:41Z</time>
      </trkpt>
      <trkpt lat="40.643967669457197" lon="14.669017111882567">
        <ele>236.33000000000001</ele>
        <time>2021-01-27T09:25:47Z</time>
      </trkpt>
      <trkpt lat="40.644025756046176" lon="14.669000683352351">
        <ele>235.94</ele>
        <time>2021-01-27T09:25:52Z</time>
      </trkpt>
      <trkpt lat="40.644091553986073" lon="14.668958270922303">
        <ele>236</ele>
        <time>2021-01-27T09:25:59Z</time>
      </trkpt>
      <trkpt lat="40.644225077703595" lon="14.668861459940672">
        <ele>236.06999999999999</ele>
        <time>2021-01-27T09:26:16Z</time>
      </trkpt>
      <trkpt lat="40.644353237003088" lon="14.668711172416806">
        <ele>236.72999999999999</ele>
        <time>2021-01-27T09:26:38Z</time>
      </trkpt>
      <trkpt lat="40.644441414624453" lon="14.668676136061549">
        <ele>237.30000000000001</ele>
        <time>2021-01-27T09:26:46Z</time>
      </trkpt>
      <trkpt lat="40.644615925848484" lon="14.668598435819149">
        <ele>238.58000000000001</ele>
        <time>2021-01-27T09:27:04Z</time>
      </trkpt>
      <trkpt lat="40.644818767905235" lon="14.668510593473911">
        <ele>238.97</ele>
        <time>2021-01-27T09:27:28Z</time>
      </trkpt>
      <trkpt lat="40.644902670755982" lon="14.668424846604466">
        <ele>238.53999999999999</ele>
        <time>2021-01-27T09:27:49Z</time>
      </trkpt>
      <trkpt lat="40.644911304116249" lon="14.668376399204135">
        <ele>237.31</ele>
        <time>2021-01-27T09:28:10Z</time>
      </trkpt>
      <trkpt lat="40.64486050978303" lon="14.668333567678928">
        <ele>236.72999999999999</ele>
        <time>2021-01-27T09:28:32Z</time>
      </trkpt>
      <trkpt lat="40.644804518669844" lon="14.668297525495291">
        <ele>235.97999999999999</ele>
        <time>2021-01-27T09:28:41Z</time>
      </trkpt>
      <trkpt lat="40.644673509523273" lon="14.668153105303645">
        <ele>238.03</ele>
        <time>2021-01-27T09:29:01Z</time>
      </trkpt>
      <trkpt lat="40.644622631371021" lon="14.668060401454568">
        <ele>240.97</ele>
        <time>2021-01-27T09:29:15Z</time>
      </trkpt>
      <trkpt lat="40.644582817330956" lon="14.668022012338042">
        <ele>242.72999999999999</ele>
        <time>2021-01-27T09:29:32Z</time>
      </trkpt>
      <trkpt lat="40.644577704370022" lon="14.668023269623518">
        <ele>242.71000000000001</ele>
        <time>2021-01-27T09:29:33Z</time>
      </trkpt>
      <trkpt lat="40.644549205899239" lon="14.66800969094038">
        <ele>242.61000000000001</ele>
        <time>2021-01-27T09:29:36Z</time>
      </trkpt>
      <trkpt lat="40.644461698830128" lon="14.667979264631867">
        <ele>242.78999999999999</ele>
        <time>2021-01-27T09:29:48Z</time>
      </trkpt>
      <trkpt lat="40.644406713545322" lon="14.667964009568095">
        <ele>242.62</ele>
        <time>2021-01-27T09:29:54Z</time>
      </trkpt>
      <trkpt lat="40.644389279186726" lon="14.667952107265592">
        <ele>242.21000000000001</ele>
        <time>2021-01-27T09:29:56Z</time>
      </trkpt>
      <trkpt lat="40.64429858699441" lon="14.66776049695909">
        <ele>240.78</ele>
        <time>2021-01-27T09:30:13Z</time>
      </trkpt>
      <trkpt lat="40.644296826794744" lon="14.667737614363432">
        <ele>240.77000000000001</ele>
        <time>2021-01-27T09:30:16Z</time>
      </trkpt>
      <trkpt lat="40.644301185384393" lon="14.667695369571447">
        <ele>240.77000000000001</ele>
        <time>2021-01-27T09:30:19Z</time>
      </trkpt>
      <trkpt lat="40.644285008311272" lon="14.667461765930057">
        <ele>239.93000000000001</ele>
        <time>2021-01-27T09:30:35Z</time>
      </trkpt>
      <trkpt lat="40.644289618358016" lon="14.667301587760448">
        <ele>239.58000000000001</ele>
        <time>2021-01-27T09:30:47Z</time>
      </trkpt>
      <trkpt lat="40.644248966127634" lon="14.667235873639584">
        <ele>240.49000000000001</ele>
        <time>2021-01-27T09:30:59Z</time>
      </trkpt>
      <trkpt lat="40.644206721335649" lon="14.667222965508699">
        <ele>240.66</ele>
        <time>2021-01-27T09:31:03Z</time>
      </trkpt>
      <trkpt lat="40.644175624474883" lon="14.667198825627565">
        <ele>240.86000000000001</ele>
        <time>2021-01-27T09:31:06Z</time>
      </trkpt>
      <trkpt lat="40.643972279503942" lon="14.667148618027568">
        <ele>240.93000000000001</ele>
        <time>2021-01-27T09:31:24Z</time>
      </trkpt>
      <trkpt lat="40.643940092995763" lon="14.667128082364798">
        <ele>241.11000000000001</ele>
        <time>2021-01-27T09:31:33Z</time>
      </trkpt>
      <trkpt lat="40.643927771598101" lon="14.667092375457287">
        <ele>240.59999999999999</ele>
        <time>2021-01-27T09:31:46Z</time>
      </trkpt>
      <trkpt lat="40.643913773819804" lon="14.667060356587172">
        <ele>239.56</ele>
        <time>2021-01-27T09:33:10Z</time>
      </trkpt>
      <trkpt lat="40.643895417451859" lon="14.66704661026597">
        <ele>238.74000000000001</ele>
        <time>2021-01-27T09:33:14Z</time>
      </trkpt>
      <trkpt lat="40.643832050263882" lon="14.666928509250283">
        <ele>236.38</ele>
        <time>2021-01-27T09:33:26Z</time>
      </trkpt>
      <trkpt lat="40.643826853483915" lon="14.666899926960468">
        <ele>235.93000000000001</ele>
        <time>2021-01-27T09:33:28Z</time>
      </trkpt>
      <trkpt lat="40.643831379711628" lon="14.66684284619987">
        <ele>235.06</ele>
        <time>2021-01-27T09:33:32Z</time>
      </trkpt>
      <trkpt lat="40.643886029720306" lon="14.666670262813568">
        <ele>232.96000000000001</ele>
        <time>2021-01-27T09:33:46Z</time>
      </trkpt>
      <trkpt lat="40.643887454643846" lon="14.666588203981519">
        <ele>232.00999999999999</ele>
        <time>2021-01-27T09:33:52Z</time>
      </trkpt>
      <trkpt lat="40.643894746899605" lon="14.666394665837288">
        <ele>230.59</ele>
        <time>2021-01-27T09:34:07Z</time>
      </trkpt>
      <trkpt lat="40.643844371661544" lon="14.666136838495731">
        <ele>229.41</ele>
        <time>2021-01-27T09:34:23Z</time>
      </trkpt>
      <trkpt lat="40.643795924261212" lon="14.666076321154833">
        <ele>229.49000000000001</ele>
        <time>2021-01-27T09:34:29Z</time>
      </trkpt>
      <trkpt lat="40.643730713054538" lon="14.666041200980544">
        <ele>229.56</ele>
        <time>2021-01-27T09:34:35Z</time>
      </trkpt>
      <trkpt lat="40.643684947863221" lon="14.66597355902195">
        <ele>229.47</ele>
        <time>2021-01-27T09:34:39Z</time>
      </trkpt>
      <trkpt lat="40.643596854060888" lon="14.665838778018951">
        <ele>229.61000000000001</ele>
        <time>2021-01-27T09:34:48Z</time>
      </trkpt>
      <trkpt lat="40.643572797998786" lon="14.665812039747834">
        <ele>229.96000000000001</ele>
        <time>2021-01-27T09:34:50Z</time>
      </trkpt>
      <trkpt lat="40.643476070836186" lon="14.665684718638659">
        <ele>230.06</ele>
        <time>2021-01-27T09:35:01Z</time>
      </trkpt>
      <trkpt lat="40.643320502713323" lon="14.665547842159867">
        <ele>231.38</ele>
        <time>2021-01-27T09:35:17Z</time>
      </trkpt>
      <trkpt lat="40.643220255151391" lon="14.665532084181905">
        <ele>232.63</ele>
        <time>2021-01-27T09:35:26Z</time>
      </trkpt>
      <trkpt lat="40.643123611807823" lon="14.665532503277063">
        <ele>233.56999999999999</ele>
        <time>2021-01-27T09:35:35Z</time>
      </trkpt>
      <trkpt lat="40.643081199377775" lon="14.665508950129151">
        <ele>233.72</ele>
        <time>2021-01-27T09:35:39Z</time>
      </trkpt>
      <trkpt lat="40.643017999827862" lon="14.665455557405949">
        <ele>234.61000000000001</ele>
        <time>2021-01-27T09:35:47Z</time>
      </trkpt>
      <trkpt lat="40.642978940159082" lon="14.665428316220641">
        <ele>234.90000000000001</ele>
        <time>2021-01-27T09:35:50Z</time>
      </trkpt>
      <trkpt lat="40.642898306250572" lon="14.665337707847357">
        <ele>235.66</ele>
        <time>2021-01-27T09:35:57Z</time>
      </trkpt>
      <trkpt lat="40.642826557159424" lon="14.665164034813643">
        <ele>235.83000000000001</ele>
        <time>2021-01-27T09:36:10Z</time>
      </trkpt>
      <trkpt lat="40.642833765596151" lon="14.66510871425271">
        <ele>235.80000000000001</ele>
        <time>2021-01-27T09:36:14Z</time>
      </trkpt>
      <trkpt lat="40.642850613221526" lon="14.664951134473085">
        <ele>236.06999999999999</ele>
        <time>2021-01-27T09:36:26Z</time>
      </trkpt>
      <trkpt lat="40.642886236310005" lon="14.664813922718167">
        <ele>237.00999999999999</ele>
        <time>2021-01-27T09:36:38Z</time>
      </trkpt>
      <trkpt lat="40.64296267926693" lon="14.664572356268764">
        <ele>239.78</ele>
        <time>2021-01-27T09:36:58Z</time>
      </trkpt>
      <trkpt lat="40.643011126667261" lon="14.664456602185965">
        <ele>240.58000000000001</ele>
        <time>2021-01-27T09:37:07Z</time>
      </trkpt>
      <trkpt lat="40.643069967627525" lon="14.664384266361594">
        <ele>241.72</ele>
        <time>2021-01-27T09:37:14Z</time>
      </trkpt>
      <trkpt lat="40.643088491633534" lon="14.664317714050412">
        <ele>242.16999999999999</ele>
        <time>2021-01-27T09:37:19Z</time>
      </trkpt>
      <trkpt lat="40.643168371170759" lon="14.664145214483142">
        <ele>242.84</ele>
        <time>2021-01-27T09:37:33Z</time>
      </trkpt>
      <trkpt lat="40.643155882135034" lon="14.663919657468796">
        <ele>241.53</ele>
        <time>2021-01-27T09:37:45Z</time>
      </trkpt>
      <trkpt lat="40.643153199926019" lon="14.66388956643641">
        <ele>241.37</ele>
        <time>2021-01-27T09:37:47Z</time>
      </trkpt>
      <trkpt lat="40.643220841884613" lon="14.663703236728907">
        <ele>241.36000000000001</ele>
        <time>2021-01-27T09:38:00Z</time>
      </trkpt>
      <trkpt lat="40.643301224336028" lon="14.663600474596024">
        <ele>240.62</ele>
        <time>2021-01-27T09:38:09Z</time>
      </trkpt>
      <trkpt lat="40.643383366987109" lon="14.663501819595695">
        <ele>239.63999999999999</ele>
        <time>2021-01-27T09:38:19Z</time>
      </trkpt>
      <trkpt lat="40.643496019765735" lon="14.663411965593696">
        <ele>239.84999999999999</ele>
        <time>2021-01-27T09:38:31Z</time>
      </trkpt>
      <trkpt lat="40.643590651452541" lon="14.663345078006387">
        <ele>239.66999999999999</ele>
        <time>2021-01-27T09:38:41Z</time>
      </trkpt>
      <trkpt lat="40.643641278147697" lon="14.663211219012737">
        <ele>240.09999999999999</ele>
        <time>2021-01-27T09:38:52Z</time>
      </trkpt>
      <trkpt lat="40.64366927370429" lon="14.663159418851137">
        <ele>240.38999999999999</ele>
        <time>2021-01-27T09:38:57Z</time>
      </trkpt>
      <trkpt lat="40.643745632842183" lon="14.663006784394383">
        <ele>241.09</ele>
        <time>2021-01-27T09:39:09Z</time>
      </trkpt>
      <trkpt lat="40.643749991431832" lon="14.662979124113917">
        <ele>241.41</ele>
        <time>2021-01-27T09:39:11Z</time>
      </trkpt>
      <trkpt lat="40.643755020573735" lon="14.662916427478194">
        <ele>241.81</ele>
        <time>2021-01-27T09:39:15Z</time>
      </trkpt>
      <trkpt lat="40.643798522651196" lon="14.662733282893896">
        <ele>244.44999999999999</ele>
        <time>2021-01-27T09:39:30Z</time>
      </trkpt>
      <trkpt lat="40.643873792141676" lon="14.662591964006424">
        <ele>246.80000000000001</ele>
        <time>2021-01-27T09:39:44Z</time>
      </trkpt>
      <trkpt lat="40.643990384414792" lon="14.66243689879775">
        <ele>247.13</ele>
        <time>2021-01-27T09:40:02Z</time>
      </trkpt>
      <trkpt lat="40.643999436870217" lon="14.662440586835146">
        <ele>246.91</ele>
        <time>2021-01-27T09:40:03Z</time>
      </trkpt>
      <trkpt lat="40.644153160974383" lon="14.662555335089564">
        <ele>245.69999999999999</ele>
        <time>2021-01-27T09:40:20Z</time>
      </trkpt>
      <trkpt lat="40.644226502627134" lon="14.662593640387058">
        <ele>245.25999999999999</ele>
        <time>2021-01-27T09:40:28Z</time>
      </trkpt>
      <trkpt lat="40.644408809021115" lon="14.66267335228622">
        <ele>244.69</ele>
        <time>2021-01-27T09:40:46Z</time>
      </trkpt>
      <trkpt lat="40.644587343558669" lon="14.662726577371359">
        <ele>244.91</ele>
        <time>2021-01-27T09:41:03Z</time>
      </trkpt>
      <trkpt lat="40.644598491489887" lon="14.662730349227786">
        <ele>244.96000000000001</ele>
        <time>2021-01-27T09:41:04Z</time>
      </trkpt>
      <trkpt lat="40.644784737378359" lon="14.662591041997075">
        <ele>245.69</ele>
        <time>2021-01-27T09:41:24Z</time>
      </trkpt>
      <trkpt lat="40.644888756796718" lon="14.662278145551682">
        <ele>244.90000000000001</ele>
        <time>2021-01-27T09:41:47Z</time>
      </trkpt>
      <trkpt lat="40.644932091236115" lon="14.662187118083239">
        <ele>244.72</ele>
        <time>2021-01-27T09:41:54Z</time>
      </trkpt>
      <trkpt lat="40.644891606643796" lon="14.661915963515639">
        <ele>244.97999999999999</ele>
        <time>2021-01-27T09:42:12Z</time>
      </trkpt>
      <trkpt lat="40.644843243062496" lon="14.661632990464568">
        <ele>246.53</ele>
        <time>2021-01-27T09:42:31Z</time>
      </trkpt>
      <trkpt lat="40.644842823967338" lon="14.661603150889277">
        <ele>246.84999999999999</ele>
        <time>2021-01-27T09:42:33Z</time>
      </trkpt>
      <trkpt lat="40.644849361851811" lon="14.661542298272252">
        <ele>247.38</ele>
        <time>2021-01-27T09:42:37Z</time>
      </trkpt>
      <trkpt lat="40.644906861707568" lon="14.661321602761745">
        <ele>249.94999999999999</ele>
        <time>2021-01-27T09:42:54Z</time>
      </trkpt>
      <trkpt lat="40.644959500059485" lon="14.661057656630874">
        <ele>251.63999999999999</ele>
        <time>2021-01-27T09:43:14Z</time>
      </trkpt>
      <trkpt lat="40.645080115646124" lon="14.660965958610177">
        <ele>252.90000000000001</ele>
        <time>2021-01-27T09:43:27Z</time>
      </trkpt>
      <trkpt lat="40.645261248573661" lon="14.660948188975453">
        <ele>255.16999999999999</ele>
        <time>2021-01-27T09:43:45Z</time>
      </trkpt>
      <trkpt lat="40.645426455885172" lon="14.66100325807929">
        <ele>257.95999999999998</ele>
        <time>2021-01-27T09:44:03Z</time>
      </trkpt>
      <trkpt lat="40.645546736195683" lon="14.661037623882294">
        <ele>260.92000000000002</ele>
        <time>2021-01-27T09:44:19Z</time>
      </trkpt>
      <trkpt lat="40.645664501935244" lon="14.661144744604826">
        <ele>264.14999999999998</ele>
        <time>2021-01-27T09:44:39Z</time>
      </trkpt>
      <trkpt lat="40.645785285159945" lon="14.661234011873603">
        <ele>266.75999999999999</ele>
        <time>2021-01-27T09:44:57Z</time>
      </trkpt>
      <trkpt lat="40.645922916010022" lon="14.661305760964751">
        <ele>268.80000000000001</ele>
        <time>2021-01-27T09:45:14Z</time>
      </trkpt>
      <trkpt lat="40.646084938198328" lon="14.661255469545722">
        <ele>269.60000000000002</ele>
        <time>2021-01-27T09:45:33Z</time>
      </trkpt>
      <trkpt lat="40.646084686741233" lon="14.661206351593137">
        <ele>269.63999999999999</ele>
        <time>2021-01-27T09:45:37Z</time>
      </trkpt>
      <trkpt lat="40.64607379026711" lon="14.660996301099658">
        <ele>271.56</ele>
        <time>2021-01-27T09:45:56Z</time>
      </trkpt>
      <trkpt lat="40.646087117493153" lon="14.660806450992823">
        <ele>273.64999999999998</ele>
        <time>2021-01-27T09:46:13Z</time>
      </trkpt>
      <trkpt lat="40.64610798843205" lon="14.660647194832563">
        <ele>275.35000000000002</ele>
        <time>2021-01-27T09:46:27Z</time>
      </trkpt>
      <trkpt lat="40.646061385050416" lon="14.660452818498015">
        <ele>277.81</ele>
        <time>2021-01-27T09:46:45Z</time>
      </trkpt>
      <trkpt lat="40.646017296239734" lon="14.660288114100695">
        <ele>279.93000000000001</ele>
        <time>2021-01-27T09:47:01Z</time>
      </trkpt>
      <trkpt lat="40.645960047841072" lon="14.660101616755128">
        <ele>282.76999999999998</ele>
        <time>2021-01-27T09:47:19Z</time>
      </trkpt>
      <trkpt lat="40.645904559642076" lon="14.659932050853968">
        <ele>285.92000000000002</ele>
        <time>2021-01-27T09:47:35Z</time>
      </trkpt>
      <trkpt lat="40.645920988172293" lon="14.659758042544127">
        <ele>287.00999999999999</ele>
        <time>2021-01-27T09:47:51Z</time>
      </trkpt>
      <trkpt lat="40.646080328151584" lon="14.659649580717087">
        <ele>289.76999999999998</ele>
        <time>2021-01-27T09:48:11Z</time>
      </trkpt>
      <trkpt lat="40.646097427234054" lon="14.659636253491044">
        <ele>290.04000000000002</ele>
        <time>2021-01-27T09:48:13Z</time>
      </trkpt>
      <trkpt lat="40.646267579868436" lon="14.659467106685042">
        <ele>291.85000000000002</ele>
        <time>2021-01-27T09:48:33Z</time>
      </trkpt>
      <trkpt lat="40.646381322294474" lon="14.659313801676035">
        <ele>292.31999999999999</ele>
        <time>2021-01-27T09:48:49Z</time>
      </trkpt>
      <trkpt lat="40.646372437477112" lon="14.659101907163858">
        <ele>291.45999999999998</ele>
        <time>2021-01-27T09:49:06Z</time>
      </trkpt>
      <trkpt lat="40.646304208785295" lon="14.658909291028976">
        <ele>290.37</ele>
        <time>2021-01-27T09:49:24Z</time>
      </trkpt>
      <trkpt lat="40.646223239600658" lon="14.658674513921142">
        <ele>289.73000000000002</ele>
        <time>2021-01-27T09:49:44Z</time>
      </trkpt>
      <trkpt lat="40.646154172718525" lon="14.658500421792269">
        <ele>288.97000000000003</ele>
        <time>2021-01-27T09:50:00Z</time>
      </trkpt>
      <trkpt lat="40.646155597642064" lon="14.658469492569566">
        <ele>289.08999999999997</ele>
        <time>2021-01-27T09:50:43Z</time>
      </trkpt>
      <trkpt lat="40.646128356456757" lon="14.658434959128499">
        <ele>289.35000000000002</ele>
        <time>2021-01-27T09:53:17Z</time>
      </trkpt>
      <trkpt lat="40.646126260980964" lon="14.658428924158216">
        <ele>289.38</ele>
        <time>2021-01-27T09:53:46Z</time>
      </trkpt>
      <trkpt lat="40.646113520488143" lon="14.65837930329144">
        <ele>289.22000000000003</ele>
        <time>2021-01-27T09:54:05Z</time>
      </trkpt>
      <trkpt lat="40.646091140806675" lon="14.658379554748535">
        <ele>288.86000000000001</ele>
        <time>2021-01-27T09:56:33Z</time>
      </trkpt>
      <trkpt lat="40.645972453057766" lon="14.658266566693783">
        <ele>287.56999999999999</ele>
        <time>2021-01-27T09:56:49Z</time>
      </trkpt>
      <trkpt lat="40.645865499973297" lon="14.658100269734859">
        <ele>285.41000000000003</ele>
        <time>2021-01-27T09:57:06Z</time>
      </trkpt>
      <trkpt lat="40.645841024816036" lon="14.658022904768586">
        <ele>284.16000000000003</ele>
        <time>2021-01-27T09:57:15Z</time>
      </trkpt>
      <trkpt lat="40.645768856629729" lon="14.657913353294134">
        <ele>281.13999999999999</ele>
        <time>2021-01-27T09:57:30Z</time>
      </trkpt>
      <trkpt lat="40.645624352619052" lon="14.657883010804653">
        <ele>277.81999999999999</ele>
        <time>2021-01-27T09:57:42Z</time>
      </trkpt>
      <trkpt lat="40.645485632121563" lon="14.657802544534206">
        <ele>274.66000000000003</ele>
        <time>2021-01-27T09:57:57Z</time>
      </trkpt>
      <trkpt lat="40.645423522219062" lon="14.657655861228704">
        <ele>271.51999999999998</ele>
        <time>2021-01-27T09:58:13Z</time>
      </trkpt>
      <trkpt lat="40.64533157274127" lon="14.657568857073784">
        <ele>268.49000000000001</ele>
        <time>2021-01-27T09:58:26Z</time>
      </trkpt>
      <trkpt lat="40.645283041521907" lon="14.657458132132888">
        <ele>266.62</ele>
        <time>2021-01-27T09:58:33Z</time>
      </trkpt>
      <trkpt lat="40.645205089822412" lon="14.657164011150599">
        <ele>262.49000000000001</ele>
        <time>2021-01-27T09:58:53Z</time>
      </trkpt>
      <trkpt lat="40.645202491432428" lon="14.657149259001017">
        <ele>262.29000000000002</ele>
        <time>2021-01-27T09:58:54Z</time>
      </trkpt>
      <trkpt lat="40.645196959376335" lon="14.657095531001687">
        <ele>261.20999999999998</ele>
        <time>2021-01-27T09:58:58Z</time>
      </trkpt>
      <trkpt lat="40.645186398178339" lon="14.656910039484501">
        <ele>258.62</ele>
        <time>2021-01-27T09:59:11Z</time>
      </trkpt>
      <trkpt lat="40.645182877779007" lon="14.656840218231082">
        <ele>257.88999999999999</ele>
        <time>2021-01-27T09:59:15Z</time>
      </trkpt>
      <trkpt lat="40.645183213055134" lon="14.656642908230424">
        <ele>254.88</ele>
        <time>2021-01-27T09:59:28Z</time>
      </trkpt>
      <trkpt lat="40.645200982689857" lon="14.656443251296878">
        <ele>251.56</ele>
        <time>2021-01-27T09:59:39Z</time>
      </trkpt>
      <trkpt lat="40.645193187519908" lon="14.656235631555319">
        <ele>248.50999999999999</ele>
        <time>2021-01-27T09:59:52Z</time>
      </trkpt>
      <trkpt lat="40.645171143114567" lon="14.655938493087888">
        <ele>245.47</ele>
        <time>2021-01-27T10:00:08Z</time>
      </trkpt>
      <trkpt lat="40.645178267732263" lon="14.655854422599077">
        <ele>244.5</ele>
        <time>2021-01-27T10:00:12Z</time>
      </trkpt>
      <trkpt lat="40.645171059295535" lon="14.655823661014438">
        <ele>244.68000000000001</ele>
        <time>2021-01-27T10:00:14Z</time>
      </trkpt>
      <trkpt lat="40.645141638815403" lon="14.655585447326303">
        <ele>241.50999999999999</ele>
        <time>2021-01-27T10:00:32Z</time>
      </trkpt>
      <trkpt lat="40.645157732069492" lon="14.65536248870194">
        <ele>239.05000000000001</ele>
        <time>2021-01-27T10:00:49Z</time>
      </trkpt>
      <trkpt lat="40.645165778696537" lon="14.655124358832836">
        <ele>235.88999999999999</ele>
        <time>2021-01-27T10:01:05Z</time>
      </trkpt>
      <trkpt lat="40.64523920416832" lon="14.654874661937356">
        <ele>233.44999999999999</ele>
        <time>2021-01-27T10:01:22Z</time>
      </trkpt>
      <trkpt lat="40.645322352647781" lon="14.654899388551712">
        <ele>232.19</ele>
        <time>2021-01-27T10:01:30Z</time>
      </trkpt>
      <trkpt lat="40.645501725375652" lon="14.655099967494607">
        <ele>229.46000000000001</ele>
        <time>2021-01-27T10:01:50Z</time>
      </trkpt>
      <trkpt lat="40.6455407012254" lon="14.655140452086926">
        <ele>228.86000000000001</ele>
        <time>2021-01-27T10:01:54Z</time>
      </trkpt>
      <trkpt lat="40.64559007063508" lon="14.65514849871397">
        <ele>228.37</ele>
        <time>2021-01-27T10:01:58Z</time>
      </trkpt>
      <trkpt lat="40.645697191357613" lon="14.655284034088254">
        <ele>226.30000000000001</ele>
        <time>2021-01-27T10:02:13Z</time>
      </trkpt>
      <trkpt lat="40.645710183307528" lon="14.655300881713629">
        <ele>226.22</ele>
        <time>2021-01-27T10:02:15Z</time>
      </trkpt>
      <trkpt lat="40.645726108923554" lon="14.655322758480906">
        <ele>226.09</ele>
        <time>2021-01-27T10:02:17Z</time>
      </trkpt>
      <trkpt lat="40.64581923186779" lon="14.655435746535659">
        <ele>225.28999999999999</ele>
        <time>2021-01-27T10:02:31Z</time>
      </trkpt>
      <trkpt lat="40.645862147212029" lon="14.65549735352397">
        <ele>225.38</ele>
        <time>2021-01-27T10:02:37Z</time>
      </trkpt>
      <trkpt lat="40.645887041464448" lon="14.655512105673552">
        <ele>225.36000000000001</ele>
        <time>2021-01-27T10:02:39Z</time>
      </trkpt>
      <trkpt lat="40.646001538261771" lon="14.655558876693249">
        <ele>225.63999999999999</ele>
        <time>2021-01-27T10:02:47Z</time>
      </trkpt>
      <trkpt lat="40.646060714498162" lon="14.655575724318624">
        <ele>225.38999999999999</ele>
        <time>2021-01-27T10:02:53Z</time>
      </trkpt>
      <trkpt lat="40.646246038377285" lon="14.65556382201612">
        <ele>225.41999999999999</ele>
        <time>2021-01-27T10:03:05Z</time>
      </trkpt>
      <trkpt lat="40.646372688934207" lon="14.65553255751729">
        <ele>225.53</ele>
        <time>2021-01-27T10:03:15Z</time>
      </trkpt>
      <trkpt lat="40.646411161869764" lon="14.655521912500262">
        <ele>225.50999999999999</ele>
        <time>2021-01-27T10:03:18Z</time>
      </trkpt>
      <trkpt lat="40.646663960069418" lon="14.655485702678561">
        <ele>226.37</ele>
        <time>2021-01-27T10:03:31Z</time>
      </trkpt>
      <trkpt lat="40.646686339750886" lon="14.655484361574054">
        <ele>226.59</ele>
        <time>2021-01-27T10:03:32Z</time>
      </trkpt>
      <trkpt lat="40.646784491837025" lon="14.655290404334664">
        <ele>229.5</ele>
        <time>2021-01-27T10:03:48Z</time>
      </trkpt>
      <trkpt lat="40.646844254806638" lon="14.655142715200782">
        <ele>232.09</ele>
        <time>2021-01-27T10:03:59Z</time>
      </trkpt>
      <trkpt lat="40.646852636709809" lon="14.655112372711301">
        <ele>232.5</ele>
        <time>2021-01-27T10:04:02Z</time>
      </trkpt>
      <trkpt lat="40.646905107423663" lon="14.655103152617812">
        <ele>233.00999999999999</ele>
        <time>2021-01-27T10:04:08Z</time>
      </trkpt>
      <trkpt lat="40.646983478218317" lon="14.65519929304719">
        <ele>232.88</ele>
        <time>2021-01-27T10:04:17Z</time>
      </trkpt>
      <trkpt lat="40.647099399939179" lon="14.655290655791759">
        <ele>233.06999999999999</ele>
        <time>2021-01-27T10:04:29Z</time>
      </trkpt>
      <trkpt lat="40.647212471812963" lon="14.655397022143006">
        <ele>233.31999999999999</ele>
        <time>2021-01-27T10:04:41Z</time>
      </trkpt>
      <trkpt lat="40.647275503724813" lon="14.655459299683571">
        <ele>233.16</ele>
        <time>2021-01-27T10:04:48Z</time>
      </trkpt>
      <trkpt lat="40.647389329969883" lon="14.655631631612778">
        <ele>233.59999999999999</ele>
        <time>2021-01-27T10:05:03Z</time>
      </trkpt>
      <trkpt lat="40.647520590573549" lon="14.655872108414769">
        <ele>234.69999999999999</ele>
        <time>2021-01-27T10:05:21Z</time>
      </trkpt>
      <trkpt lat="40.647621676325798" lon="14.656024659052491">
        <ele>236.74000000000001</ele>
        <time>2021-01-27T10:05:35Z</time>
      </trkpt>
      <trkpt lat="40.64762569963932" lon="14.65603731572628">
        <ele>237.06999999999999</ele>
        <time>2021-01-27T10:05:36Z</time>
      </trkpt>
      <trkpt lat="40.64770532771945" lon="14.656191039830446">
        <ele>238.49000000000001</ele>
        <time>2021-01-27T10:05:48Z</time>
      </trkpt>
      <trkpt lat="40.647790906950831" lon="14.656265554949641">
        <ele>239.13</ele>
        <time>2021-01-27T10:05:58Z</time>
      </trkpt>
      <trkpt lat="40.647926107048988" lon="14.656446520239115">
        <ele>241.38</ele>
        <time>2021-01-27T10:06:18Z</time>
      </trkpt>
      <trkpt lat="40.648079160600901" lon="14.656573925167322">
        <ele>244.55000000000001</ele>
        <time>2021-01-27T10:06:35Z</time>
      </trkpt>
      <trkpt lat="40.648170942440629" lon="14.656676016747952">
        <ele>247.88999999999999</ele>
        <time>2021-01-27T10:06:48Z</time>
      </trkpt>
      <trkpt lat="40.648274458944798" lon="14.65678296983242">
        <ele>251.03</ele>
        <time>2021-01-27T10:07:01Z</time>
      </trkpt>
      <trkpt lat="40.64841921441257" lon="14.65687919408083">
        <ele>254.18000000000001</ele>
        <time>2021-01-27T10:07:15Z</time>
      </trkpt>
      <trkpt lat="40.648494902998209" lon="14.656939627602696">
        <ele>255.94999999999999</ele>
        <time>2021-01-27T10:07:24Z</time>
      </trkpt>
      <trkpt lat="40.648651057854295" lon="14.657012885436416">
        <ele>258.81999999999999</ele>
        <time>2021-01-27T10:07:39Z</time>
      </trkpt>
      <trkpt lat="40.648811403661966" lon="14.657051861286163">
        <ele>260.31</ele>
        <time>2021-01-27T10:07:53Z</time>
      </trkpt>
      <trkpt lat="40.648934030905366" lon="14.657090837135911">
        <ele>262.52999999999997</ele>
        <time>2021-01-27T10:08:06Z</time>
      </trkpt>
      <trkpt lat="40.649114409461617" lon="14.657164346426725">
        <ele>265.17000000000002</ele>
        <time>2021-01-27T10:08:23Z</time>
      </trkpt>
      <trkpt lat="40.649162102490664" lon="14.657197119668126">
        <ele>266.42000000000002</ele>
        <time>2021-01-27T10:08:31Z</time>
      </trkpt>
      <trkpt lat="40.649223038926721" lon="14.657225199043751">
        <ele>266.87</ele>
        <time>2021-01-27T10:08:35Z</time>
      </trkpt>
      <trkpt lat="40.649352623149753" lon="14.657262582331896">
        <ele>268.48000000000002</ele>
        <time>2021-01-27T10:08:49Z</time>
      </trkpt>
      <trkpt lat="40.649366201832891" lon="14.65727012604475">
        <ele>268.68000000000001</ele>
        <time>2021-01-27T10:08:50Z</time>
      </trkpt>
      <trkpt lat="40.649419091641903" lon="14.657273311167955">
        <ele>268.38</ele>
        <time>2021-01-27T10:08:53Z</time>
      </trkpt>
      <trkpt lat="40.649509951472282" lon="14.657316394150257">
        <ele>268.62</ele>
        <time>2021-01-27T10:09:02Z</time>
      </trkpt>
      <trkpt lat="40.649542976170778" lon="14.657325865700841">
        <ele>269.07999999999998</ele>
        <time>2021-01-27T10:09:05Z</time>
      </trkpt>
      <trkpt lat="40.649631908163428" lon="14.657322512939572">
        <ele>268.69</ele>
        <time>2021-01-27T10:09:15Z</time>
      </trkpt>
      <trkpt lat="40.649766689166427" lon="14.657343467697501">
        <ele>268.33999999999997</ele>
        <time>2021-01-27T10:09:22Z</time>
      </trkpt>
      <trkpt lat="40.649788985028863" lon="14.657254787161946">
        <ele>268.18000000000001</ele>
        <time>2021-01-27T10:09:28Z</time>
      </trkpt>
      <trkpt lat="40.649899039417505" lon="14.65721195563674">
        <ele>268.25999999999999</ele>
        <time>2021-01-27T10:09:36Z</time>
      </trkpt>
      <trkpt lat="40.650002807378769" lon="14.65715236030519">
        <ele>268</ele>
        <time>2021-01-27T10:09:45Z</time>
      </trkpt>
      <trkpt lat="40.650096852332354" lon="14.657111708074808">
        <ele>267.35000000000002</ele>
        <time>2021-01-27T10:09:55Z</time>
      </trkpt>
      <trkpt lat="40.650144210085273" lon="14.656983464956284">
        <ele>265.52999999999997</ele>
        <time>2021-01-27T10:10:07Z</time>
      </trkpt>
      <trkpt lat="40.650164410471916" lon="14.656910123303533">
        <ele>265.13999999999999</ele>
        <time>2021-01-27T10:10:12Z</time>
      </trkpt>
      <trkpt lat="40.650174133479595" lon="14.656873242929578">
        <ele>264.01999999999998</ele>
        <time>2021-01-27T10:10:15Z</time>
      </trkpt>
      <trkpt lat="40.650155022740364" lon="14.656683728098869">
        <ele>261.20999999999998</ele>
        <time>2021-01-27T10:10:29Z</time>
      </trkpt>
      <trkpt lat="40.650118980556726" lon="14.656545678153634">
        <ele>259.06999999999999</ele>
        <time>2021-01-27T10:10:39Z</time>
      </trkpt>
      <trkpt lat="40.650048824027181" lon="14.656433025375009">
        <ele>256.05000000000001</ele>
        <time>2021-01-27T10:10:52Z</time>
      </trkpt>
      <trkpt lat="40.65003122203052" lon="14.656337723135948">
        <ele>253.63</ele>
        <time>2021-01-27T10:11:00Z</time>
      </trkpt>
      <trkpt lat="40.650016805157065" lon="14.65622833929956">
        <ele>251.81</ele>
        <time>2021-01-27T10:11:09Z</time>
      </trkpt>
      <trkpt lat="40.650024684146047" lon="14.656201181933284">
        <ele>251.47</ele>
        <time>2021-01-27T10:11:11Z</time>
      </trkpt>
      <trkpt lat="40.650021750479937" lon="14.656125158071518">
        <ele>250.13999999999999</ele>
        <time>2021-01-27T10:11:17Z</time>
      </trkpt>
      <trkpt lat="40.650047650560737" lon="14.656071765348315">
        <ele>249.38999999999999</ele>
        <time>2021-01-27T10:11:21Z</time>
      </trkpt>
      <trkpt lat="40.650055361911654" lon="14.65601627714932">
        <ele>248.81999999999999</ele>
        <time>2021-01-27T10:11:25Z</time>
      </trkpt>
      <trkpt lat="40.650072293356061" lon="14.655954921618104">
        <ele>248.06</ele>
        <time>2021-01-27T10:11:29Z</time>
      </trkpt>
      <trkpt lat="40.650054523721337" lon="14.655895242467523">
        <ele>247.24000000000001</ele>
        <time>2021-01-27T10:11:34Z</time>
      </trkpt>
      <trkpt lat="40.650048740208149" lon="14.655843777582049">
        <ele>246.50999999999999</ele>
        <time>2021-01-27T10:11:37Z</time>
      </trkpt>
      <trkpt lat="40.65005318261683" lon="14.655817458406091">
        <ele>246.12</ele>
        <time>2021-01-27T10:11:39Z</time>
      </trkpt>
      <trkpt lat="40.650040861219168" lon="14.655735734850168">
        <ele>244.81</ele>
        <time>2021-01-27T10:11:46Z</time>
      </trkpt>
      <trkpt lat="40.649975314736366" lon="14.655601121485233">
        <ele>243.25</ele>
        <time>2021-01-27T10:11:58Z</time>
      </trkpt>
      <trkpt lat="40.649957126006484" lon="14.655543034896255">
        <ele>242.75999999999999</ele>
        <time>2021-01-27T10:12:02Z</time>
      </trkpt>
      <trkpt lat="40.649916809052229" lon="14.655392579734325">
        <ele>241.94</ele>
        <time>2021-01-27T10:12:11Z</time>
      </trkpt>
      <trkpt lat="40.649855118244886" lon="14.655284117907286">
        <ele>240.58000000000001</ele>
        <time>2021-01-27T10:12:21Z</time>
      </trkpt>
      <trkpt lat="40.649861823767424" lon="14.655190156772733">
        <ele>240.05000000000001</ele>
        <time>2021-01-27T10:12:30Z</time>
      </trkpt>
      <trkpt lat="40.649950420483947" lon="14.655046155676246">
        <ele>237.63999999999999</ele>
        <time>2021-01-27T10:12:41Z</time>
      </trkpt>
      <trkpt lat="40.649997359141707" lon="14.654939537867904">
        <ele>236.52000000000001</ele>
        <time>2021-01-27T10:12:50Z</time>
      </trkpt>
      <trkpt lat="40.650003226473927" lon="14.654893353581429">
        <ele>236.30000000000001</ele>
        <time>2021-01-27T10:12:53Z</time>
      </trkpt>
      <trkpt lat="40.650074724107981" lon="14.654722698032856">
        <ele>235.69</ele>
        <time>2021-01-27T10:13:05Z</time>
      </trkpt>
      <trkpt lat="40.650113867595792" lon="14.654602250084281">
        <ele>235.50999999999999</ele>
        <time>2021-01-27T10:13:15Z</time>
      </trkpt>
      <trkpt lat="40.650061229243875" lon="14.654467133805156">
        <ele>234.44</ele>
        <time>2021-01-27T10:13:27Z</time>
      </trkpt>
      <trkpt lat="40.649980846792459" lon="14.654380297288299">
        <ele>233.25999999999999</ele>
        <time>2021-01-27T10:13:44Z</time>
      </trkpt>
      <trkpt lat="40.649868277832866" lon="14.654252640902996">
        <ele>232.47</ele>
        <time>2021-01-27T10:13:59Z</time>
      </trkpt>
      <trkpt lat="40.649805497378111" lon="14.654179383069277">
        <ele>231.66999999999999</ele>
        <time>2021-01-27T10:14:05Z</time>
      </trkpt>
      <trkpt lat="40.649621346965432" lon="14.654028927907348">
        <ele>231.34</ele>
        <time>2021-01-27T10:14:25Z</time>
      </trkpt>
      <trkpt lat="40.649461084976792" lon="14.653930692002177">
        <ele>231.37</ele>
        <time>2021-01-27T10:14:40Z</time>
      </trkpt>
      <trkpt lat="40.649293279275298" lon="14.653808902949095">
        <ele>231.74000000000001</ele>
        <time>2021-01-27T10:14:57Z</time>
      </trkpt>
      <trkpt lat="40.649186661466956" lon="14.653560547158122">
        <ele>232.31</ele>
        <time>2021-01-27T10:15:18Z</time>
      </trkpt>
      <trkpt lat="40.649103010073304" lon="14.653316969051957">
        <ele>232.90000000000001</ele>
        <time>2021-01-27T10:15:37Z</time>
      </trkpt>
      <trkpt lat="40.649175513535738" lon="14.65303810313344">
        <ele>233.47999999999999</ele>
        <time>2021-01-27T10:15:57Z</time>
      </trkpt>
      <trkpt lat="40.649287411943078" lon="14.652739875018597">
        <ele>234.13</ele>
        <time>2021-01-27T10:16:20Z</time>
      </trkpt>
      <trkpt lat="40.64929579384625" lon="14.652453549206257">
        <ele>233.90000000000001</ele>
        <time>2021-01-27T10:16:42Z</time>
      </trkpt>
      <trkpt lat="40.649175764992833" lon="14.652271997183561">
        <ele>234.22</ele>
        <time>2021-01-27T10:16:59Z</time>
      </trkpt>
      <trkpt lat="40.648973677307367" lon="14.652103940024972">
        <ele>235.47999999999999</ele>
        <time>2021-01-27T10:17:23Z</time>
      </trkpt>
      <trkpt lat="40.648824060335755" lon="14.651831360533834">
        <ele>236.24000000000001</ele>
        <time>2021-01-27T10:17:47Z</time>
      </trkpt>
      <trkpt lat="40.648668240755796" lon="14.651485607028008">
        <ele>237.06</ele>
        <time>2021-01-27T10:18:14Z</time>
      </trkpt>
      <trkpt lat="40.6484504789114" lon="14.651286955922842">
        <ele>237.19</ele>
        <time>2021-01-27T10:18:38Z</time>
      </trkpt>
      <trkpt lat="40.64843438565731" lon="14.651269521564245">
        <ele>236.94</ele>
        <time>2021-01-27T10:18:40Z</time>
      </trkpt>
      <trkpt lat="40.648361211642623" lon="14.651096435263753">
        <ele>235.34999999999999</ele>
        <time>2021-01-27T10:18:55Z</time>
      </trkpt>
      <trkpt lat="40.648283511400223" lon="14.65084221214056">
        <ele>234.56999999999999</ele>
        <time>2021-01-27T10:19:14Z</time>
      </trkpt>
      <trkpt lat="40.648274878039956" lon="14.650818156078458">
        <ele>234.41999999999999</ele>
        <time>2021-01-27T10:19:16Z</time>
      </trkpt>
      <trkpt lat="40.648132720962167" lon="14.650610452517867">
        <ele>233.34</ele>
        <time>2021-01-27T10:19:35Z</time>
      </trkpt>
      <trkpt lat="40.64807279035449" lon="14.650299483910203">
        <ele>232.12</ele>
        <time>2021-01-27T10:19:57Z</time>
      </trkpt>
      <trkpt lat="40.648069102317095" lon="14.650272494181991">
        <ele>232.22999999999999</ele>
        <time>2021-01-27T10:19:59Z</time>
      </trkpt>
      <trkpt lat="40.648056194186211" lon="14.65021776035428">
        <ele>231.44999999999999</ele>
        <time>2021-01-27T10:20:03Z</time>
      </trkpt>
      <trkpt lat="40.64799408428371" lon="14.649950042366982">
        <ele>230.44</ele>
        <time>2021-01-27T10:20:24Z</time>
      </trkpt>
      <trkpt lat="40.647929962724447" lon="14.64966706931591">
        <ele>229.31</ele>
        <time>2021-01-27T10:20:44Z</time>
      </trkpt>
      <trkpt lat="40.647954689338803" lon="14.649653155356646">
        <ele>230.03</ele>
        <time>2021-01-27T10:20:56Z</time>
      </trkpt>
      <trkpt lat="40.647973800078034" lon="14.649676540866494">
        <ele>231.02000000000001</ele>
        <time>2021-01-27T10:21:14Z</time>
      </trkpt>
      <trkpt lat="40.648026103153825" lon="14.649762706831098">
        <ele>233.18000000000001</ele>
        <time>2021-01-27T10:21:40Z</time>
      </trkpt>
      <trkpt lat="40.648095672950149" lon="14.649837138131261">
        <ele>236.47</ele>
        <time>2021-01-27T10:21:55Z</time>
      </trkpt>
      <trkpt lat="40.648143533617258" lon="14.649890027940273">
        <ele>239.52000000000001</ele>
        <time>2021-01-27T10:22:08Z</time>
      </trkpt>
      <trkpt lat="40.648154597729445" lon="14.649910647422075">
        <ele>240.41</ele>
        <time>2021-01-27T10:22:23Z</time>
      </trkpt>
      <trkpt lat="40.648153088986874" lon="14.649953562766314">
        <ele>241.03999999999999</ele>
        <time>2021-01-27T10:22:41Z</time>
      </trkpt>
      <trkpt lat="40.648147640749812" lon="14.649973511695862">
        <ele>240.80000000000001</ele>
        <time>2021-01-27T10:23:12Z</time>
      </trkpt>
      <trkpt lat="40.648143030703068" lon="14.649965381249785">
        <ele>241.19999999999999</ele>
        <time>2021-01-27T10:23:47Z</time>
      </trkpt>
      <trkpt lat="40.648144371807575" lon="14.649973595514894">
        <ele>241.13</ele>
        <time>2021-01-27T10:24:14Z</time>
      </trkpt>
      <trkpt lat="40.648150239139795" lon="14.649977535009384">
        <ele>241.28</ele>
        <time>2021-01-27T10:24:52Z</time>
      </trkpt>
      <trkpt lat="40.648148227483034" lon="14.649975690990686">
        <ele>241.27000000000001</ele>
        <time>2021-01-27T10:25:24Z</time>
      </trkpt>
      <trkpt lat="40.648149820044637" lon="14.649965381249785">
        <ele>241.02000000000001</ele>
        <time>2021-01-27T10:26:01Z</time>
      </trkpt>
      <trkpt lat="40.648115035146475" lon="14.649876030161977">
        <ele>237.96000000000001</ele>
        <time>2021-01-27T10:26:16Z</time>
      </trkpt>
    </trkseg>
  </trk>

</gpx>